<?xml version="1.0" encoding="UTF-8" standalone="no" ?>
<gpx xmlns="http://www.topografix.com/GPX/1/1" xmlns:xsi="http://www.w3.org/2001/XMLSchema-instance" xsi:schemaLocation="http://www.topografix.com/GPX/1/1 http://www.topografix.com/GPX/1/1/gpx.xsd" version="1.1" creator="VisuGPX - https://www.visugpx.com">
  <metadata>
    <name>Tour de France 2019</name>
    <desc><![CDATA[4272km en 2 mois en tandem avec notre petit chien dans le panier avant]]></desc>
  </metadata>
  <trk>
    <name><![CDATA[Tracé 20191008-092453]]></name>
    <trkseg>
      <trkpt lat="45.18549" lon="5.72272">
        <ele>260.888</ele>
        <time>2019-10-08T07:25:17Z</time>
      </trkpt>
      <trkpt lat="45.18538" lon="5.72217">
        <ele>243.748</ele>
        <time>2019-10-08T07:31:08Z</time>
      </trkpt>
      <trkpt lat="45.18455" lon="5.72107">
        <ele>244.697</ele>
        <time>2019-10-08T07:31:38Z</time>
      </trkpt>
      <trkpt lat="45.18314" lon="5.72171">
        <ele>250.959</ele>
        <time>2019-10-08T07:32:08Z</time>
      </trkpt>
      <trkpt lat="45.18199" lon="5.72255">
        <ele>261.121</ele>
        <time>2019-10-08T07:32:38Z</time>
      </trkpt>
      <trkpt lat="45.1809" lon="5.72273">
        <ele>267.126</ele>
        <time>2019-10-08T07:33:08Z</time>
      </trkpt>
      <trkpt lat="45.18084" lon="5.72171">
        <ele>274.597</ele>
        <time>2019-10-08T07:33:38Z</time>
      </trkpt>
      <trkpt lat="45.1805" lon="5.72057">
        <ele>287.124</ele>
        <time>2019-10-08T07:34:08Z</time>
      </trkpt>
      <trkpt lat="45.18061" lon="5.7196">
        <ele>260.276</ele>
        <time>2019-10-08T07:34:44Z</time>
      </trkpt>
      <trkpt lat="45.18058" lon="5.71821">
        <ele>236.796</ele>
        <time>2019-10-08T07:35:17Z</time>
      </trkpt>
      <trkpt lat="45.18056" lon="5.7165">
        <ele>235.748</ele>
        <time>2019-10-08T07:35:50Z</time>
      </trkpt>
      <trkpt lat="45.18035" lon="5.71619">
        <ele>226.167</ele>
        <time>2019-10-08T07:36:36Z</time>
      </trkpt>
      <trkpt lat="45.17913" lon="5.71606">
        <ele>222.636</ele>
        <time>2019-10-08T07:37:06Z</time>
      </trkpt>
      <trkpt lat="45.1779" lon="5.7156">
        <ele>232.342</ele>
        <time>2019-10-08T07:37:36Z</time>
      </trkpt>
      <trkpt lat="45.17673" lon="5.71516">
        <ele>255.722</ele>
        <time>2019-10-08T07:38:06Z</time>
      </trkpt>
      <trkpt lat="45.17537" lon="5.7148">
        <ele>266.033</ele>
        <time>2019-10-08T07:38:36Z</time>
      </trkpt>
      <trkpt lat="45.17454" lon="5.71438">
        <ele>249.128</ele>
        <time>2019-10-08T07:39:21Z</time>
      </trkpt>
      <trkpt lat="45.17353" lon="5.71389">
        <ele>234.62</ele>
        <time>2019-10-08T07:39:51Z</time>
      </trkpt>
      <trkpt lat="45.17221" lon="5.71354">
        <ele>236.818</ele>
        <time>2019-10-08T07:40:21Z</time>
      </trkpt>
      <trkpt lat="45.1709" lon="5.71313">
        <ele>233.122</ele>
        <time>2019-10-08T07:40:51Z</time>
      </trkpt>
      <trkpt lat="45.16973" lon="5.71262">
        <ele>233.278</ele>
        <time>2019-10-08T07:41:21Z</time>
      </trkpt>
      <trkpt lat="45.16852" lon="5.71228">
        <ele>236.659</ele>
        <time>2019-10-08T07:41:51Z</time>
      </trkpt>
      <trkpt lat="45.16715" lon="5.71185">
        <ele>239.871</ele>
        <time>2019-10-08T07:42:21Z</time>
      </trkpt>
      <trkpt lat="45.16576" lon="5.71139">
        <ele>231.442</ele>
        <time>2019-10-08T07:42:51Z</time>
      </trkpt>
      <trkpt lat="45.16451" lon="5.71095">
        <ele>232.19</ele>
        <time>2019-10-08T07:43:21Z</time>
      </trkpt>
      <trkpt lat="45.16334" lon="5.71045">
        <ele>239.382</ele>
        <time>2019-10-08T07:43:51Z</time>
      </trkpt>
      <trkpt lat="45.16208" lon="5.71012">
        <ele>246.869</ele>
        <time>2019-10-08T07:44:21Z</time>
      </trkpt>
      <trkpt lat="45.16068" lon="5.70957">
        <ele>240.077</ele>
        <time>2019-10-08T07:44:54Z</time>
      </trkpt>
      <trkpt lat="45.15966" lon="5.70926">
        <ele>230.649</ele>
        <time>2019-10-08T07:45:24Z</time>
      </trkpt>
      <trkpt lat="45.15864" lon="5.70891">
        <ele>234.665</ele>
        <time>2019-10-08T07:45:54Z</time>
      </trkpt>
      <trkpt lat="45.15736" lon="5.70853">
        <ele>234.102</ele>
        <time>2019-10-08T07:46:24Z</time>
      </trkpt>
      <trkpt lat="45.15619" lon="5.70808">
        <ele>233.286</ele>
        <time>2019-10-08T07:46:54Z</time>
      </trkpt>
      <trkpt lat="45.15486" lon="5.70765">
        <ele>235.653</ele>
        <time>2019-10-08T07:47:24Z</time>
      </trkpt>
      <trkpt lat="45.15362" lon="5.70725">
        <ele>235.985</ele>
        <time>2019-10-08T07:47:54Z</time>
      </trkpt>
      <trkpt lat="45.15233" lon="5.7068">
        <ele>234.98</ele>
        <time>2019-10-08T07:48:24Z</time>
      </trkpt>
      <trkpt lat="45.15108" lon="5.70635">
        <ele>239.849</ele>
        <time>2019-10-08T07:48:54Z</time>
      </trkpt>
      <trkpt lat="45.1498" lon="5.70594">
        <ele>235.528</ele>
        <time>2019-10-08T07:49:24Z</time>
      </trkpt>
      <trkpt lat="45.14848" lon="5.70554">
        <ele>233.142</ele>
        <time>2019-10-08T07:49:54Z</time>
      </trkpt>
      <trkpt lat="45.14735" lon="5.70513">
        <ele>234.453</ele>
        <time>2019-10-08T07:50:24Z</time>
      </trkpt>
      <trkpt lat="45.14607" lon="5.70469">
        <ele>242.59</ele>
        <time>2019-10-08T07:50:54Z</time>
      </trkpt>
      <trkpt lat="45.14518" lon="5.70443">
        <ele>246.939</ele>
        <time>2019-10-08T07:51:24Z</time>
      </trkpt>
      <trkpt lat="45.14402" lon="5.70402">
        <ele>242.115</ele>
        <time>2019-10-08T07:51:54Z</time>
      </trkpt>
      <trkpt lat="45.14278" lon="5.70361">
        <ele>240.39</ele>
        <time>2019-10-08T07:52:24Z</time>
      </trkpt>
      <trkpt lat="45.1415" lon="5.70315">
        <ele>242.875</ele>
        <time>2019-10-08T07:52:54Z</time>
      </trkpt>
      <trkpt lat="45.14036" lon="5.70276">
        <ele>243.058</ele>
        <time>2019-10-08T07:53:24Z</time>
      </trkpt>
      <trkpt lat="45.13919" lon="5.70234">
        <ele>243.802</ele>
        <time>2019-10-08T07:53:54.001Z</time>
      </trkpt>
      <trkpt lat="45.13807" lon="5.70202">
        <ele>241.488</ele>
        <time>2019-10-08T07:54:24.001Z</time>
      </trkpt>
      <trkpt lat="45.13679" lon="5.7016">
        <ele>244.545</ele>
        <time>2019-10-08T07:54:54.001Z</time>
      </trkpt>
      <trkpt lat="45.13564" lon="5.70116">
        <ele>249.355</ele>
        <time>2019-10-08T07:55:24.001Z</time>
      </trkpt>
      <trkpt lat="45.13436" lon="5.70072">
        <ele>245.331</ele>
        <time>2019-10-08T07:55:54.001Z</time>
      </trkpt>
      <trkpt lat="45.13353" lon="5.70046">
        <ele>240.413</ele>
        <time>2019-10-08T07:56:24.001Z</time>
      </trkpt>
      <trkpt lat="45.1325" lon="5.70007">
        <ele>244.515</ele>
        <time>2019-10-08T07:56:54.001Z</time>
      </trkpt>
      <trkpt lat="45.13129" lon="5.69971">
        <ele>252.757</ele>
        <time>2019-10-08T07:57:24.001Z</time>
      </trkpt>
      <trkpt lat="45.13" lon="5.69929">
        <ele>249.603</ele>
        <time>2019-10-08T07:57:54.001Z</time>
      </trkpt>
      <trkpt lat="45.12881" lon="5.69891">
        <ele>248.779</ele>
        <time>2019-10-08T07:58:24.001Z</time>
      </trkpt>
      <trkpt lat="45.12762" lon="5.69849">
        <ele>249.839</ele>
        <time>2019-10-08T07:58:54.001Z</time>
      </trkpt>
      <trkpt lat="45.12715" lon="5.69833">
        <ele>250.143</ele>
        <time>2019-10-08T07:59:45.001Z</time>
      </trkpt>
      <trkpt lat="45.12595" lon="5.69792">
        <ele>250.89</ele>
        <time>2019-10-08T08:00:15.001Z</time>
      </trkpt>
      <trkpt lat="45.12493" lon="5.69741">
        <ele>255.75</ele>
        <time>2019-10-08T08:00:45.001Z</time>
      </trkpt>
      <trkpt lat="45.12451" lon="5.69636">
        <ele>262.013</ele>
        <time>2019-10-08T08:01:15.001Z</time>
      </trkpt>
      <trkpt lat="45.12372" lon="5.69708">
        <ele>259.89</ele>
        <time>2019-10-08T08:01:45.001Z</time>
      </trkpt>
      <trkpt lat="45.12292" lon="5.69771">
        <ele>256.355</ele>
        <time>2019-10-08T08:02:15.001Z</time>
      </trkpt>
      <trkpt lat="45.12169" lon="5.69708">
        <ele>265.504</ele>
        <time>2019-10-08T08:02:45.001Z</time>
      </trkpt>
      <trkpt lat="45.12074" lon="5.69618">
        <ele>263.655</ele>
        <time>2019-10-08T08:03:15.001Z</time>
      </trkpt>
      <trkpt lat="45.11948" lon="5.69445">
        <ele>259.592</ele>
        <time>2019-10-08T08:03:45.001Z</time>
      </trkpt>
      <trkpt lat="45.1186" lon="5.69325">
        <ele>249.778</ele>
        <time>2019-10-08T08:04:15.001Z</time>
      </trkpt>
      <trkpt lat="45.11774" lon="5.69186">
        <ele>253.379</ele>
        <time>2019-10-08T08:04:45.001Z</time>
      </trkpt>
      <trkpt lat="45.1165" lon="5.69082">
        <ele>256.78</ele>
        <time>2019-10-08T08:05:15.001Z</time>
      </trkpt>
      <trkpt lat="45.11508" lon="5.69036">
        <ele>256.8</ele>
        <time>2019-10-08T08:05:45.001Z</time>
      </trkpt>
      <trkpt lat="45.11387" lon="5.68981">
        <ele>252.368</ele>
        <time>2019-10-08T08:06:15.001Z</time>
      </trkpt>
      <trkpt lat="45.11246" lon="5.68938">
        <ele>251.473</ele>
        <time>2019-10-08T08:06:45.001Z</time>
      </trkpt>
      <trkpt lat="45.1112" lon="5.68888">
        <ele>254.64</ele>
        <time>2019-10-08T08:07:15.001Z</time>
      </trkpt>
      <trkpt lat="45.10986" lon="5.68841">
        <ele>252.342</ele>
        <time>2019-10-08T08:07:45.001Z</time>
      </trkpt>
      <trkpt lat="45.10856" lon="5.68794">
        <ele>254.222</ele>
        <time>2019-10-08T08:08:15.001Z</time>
      </trkpt>
      <trkpt lat="45.10717" lon="5.68748">
        <ele>254.444</ele>
        <time>2019-10-08T08:08:45.001Z</time>
      </trkpt>
      <trkpt lat="45.10613" lon="5.6868">
        <ele>256.058</ele>
        <time>2019-10-08T08:09:15.001Z</time>
      </trkpt>
      <trkpt lat="45.10517" lon="5.68631">
        <ele>256.714</ele>
        <time>2019-10-08T08:09:45.001Z</time>
      </trkpt>
      <trkpt lat="45.10378" lon="5.68618">
        <ele>261.397</ele>
        <time>2019-10-08T08:10:15.001Z</time>
      </trkpt>
      <trkpt lat="45.10266" lon="5.68562">
        <ele>266.604</ele>
        <time>2019-10-08T08:10:45.001Z</time>
      </trkpt>
      <trkpt lat="45.1014" lon="5.68515">
        <ele>263.71</ele>
        <time>2019-10-08T08:11:15.001Z</time>
      </trkpt>
      <trkpt lat="45.1001" lon="5.68466">
        <ele>266.476</ele>
        <time>2019-10-08T08:11:45.001Z</time>
      </trkpt>
      <trkpt lat="45.09868" lon="5.68416">
        <ele>263.663</ele>
        <time>2019-10-08T08:12:15.001Z</time>
      </trkpt>
      <trkpt lat="45.09733" lon="5.6837">
        <ele>265.427</ele>
        <time>2019-10-08T08:12:48.001Z</time>
      </trkpt>
      <trkpt lat="45.09608" lon="5.68368">
        <ele>267.042</ele>
        <time>2019-10-08T08:13:18.001Z</time>
      </trkpt>
      <trkpt lat="45.09485" lon="5.68368">
        <ele>271.048</ele>
        <time>2019-10-08T08:13:48.001Z</time>
      </trkpt>
      <trkpt lat="45.09357" lon="5.68359">
        <ele>273.603</ele>
        <time>2019-10-08T08:14:18.001Z</time>
      </trkpt>
      <trkpt lat="45.09239" lon="5.6836">
        <ele>273.926</ele>
        <time>2019-10-08T08:14:48.001Z</time>
      </trkpt>
      <trkpt lat="45.09109" lon="5.68359">
        <ele>277.886</ele>
        <time>2019-10-08T08:15:18.001Z</time>
      </trkpt>
      <trkpt lat="45.08972" lon="5.68358">
        <ele>279.809</ele>
        <time>2019-10-08T08:15:48.001Z</time>
      </trkpt>
      <trkpt lat="45.08853" lon="5.68349">
        <ele>275.044</ele>
        <time>2019-10-08T08:16:18.001Z</time>
      </trkpt>
      <trkpt lat="45.08726" lon="5.68325">
        <ele>279.582</ele>
        <time>2019-10-08T08:16:48.001Z</time>
      </trkpt>
      <trkpt lat="45.08653" lon="5.68339">
        <ele>285.741</ele>
        <time>2019-10-08T08:17:30.001Z</time>
      </trkpt>
      <trkpt lat="45.08697" lon="5.6853">
        <ele>281.66</ele>
        <time>2019-10-08T08:18:00Z</time>
      </trkpt>
      <trkpt lat="45.08704" lon="5.6875">
        <ele>273.512</ele>
        <time>2019-10-08T08:18:30.001Z</time>
      </trkpt>
      <trkpt lat="45.08654" lon="5.68827">
        <ele>270.932</ele>
        <time>2019-10-08T08:19:00Z</time>
      </trkpt>
      <trkpt lat="45.08535" lon="5.68761">
        <ele>275.071</ele>
        <time>2019-10-08T08:19:30.001Z</time>
      </trkpt>
      <trkpt lat="45.08408" lon="5.68695">
        <ele>278.24</ele>
        <time>2019-10-08T08:20:00Z</time>
      </trkpt>
      <trkpt lat="45.08287" lon="5.68623">
        <ele>278.166</ele>
        <time>2019-10-08T08:20:30.001Z</time>
      </trkpt>
      <trkpt lat="45.08169" lon="5.68558">
        <ele>277.986</ele>
        <time>2019-10-08T08:21:00Z</time>
      </trkpt>
      <trkpt lat="45.08059" lon="5.68493">
        <ele>282.698</ele>
        <time>2019-10-08T08:21:30.001Z</time>
      </trkpt>
      <trkpt lat="45.07938" lon="5.68428">
        <ele>284.198</ele>
        <time>2019-10-08T08:22:00Z</time>
      </trkpt>
      <trkpt lat="45.07822" lon="5.68361">
        <ele>282.442</ele>
        <time>2019-10-08T08:22:30.001Z</time>
      </trkpt>
      <trkpt lat="45.07702" lon="5.6829">
        <ele>282.149</ele>
        <time>2019-10-08T08:23:00Z</time>
      </trkpt>
      <trkpt lat="45.07582" lon="5.6821">
        <ele>285.149</ele>
        <time>2019-10-08T08:23:30.001Z</time>
      </trkpt>
      <trkpt lat="45.07459" lon="5.68135">
        <ele>290.635</ele>
        <time>2019-10-08T08:24:00Z</time>
      </trkpt>
      <trkpt lat="45.07355" lon="5.68039">
        <ele>290.729</ele>
        <time>2019-10-08T08:24:30.001Z</time>
      </trkpt>
      <trkpt lat="45.07243" lon="5.68028">
        <ele>293.093</ele>
        <time>2019-10-08T08:25:00Z</time>
      </trkpt>
      <trkpt lat="45.07212" lon="5.67892">
        <ele>301.346</ele>
        <time>2019-10-08T08:25:30.001Z</time>
      </trkpt>
      <trkpt lat="45.0714" lon="5.67816">
        <ele>301.809</ele>
        <time>2019-10-08T08:26:00Z</time>
      </trkpt>
      <trkpt lat="45.07045" lon="5.67722">
        <ele>297.861</ele>
        <time>2019-10-08T08:26:30.001Z</time>
      </trkpt>
      <trkpt lat="45.06946" lon="5.6762">
        <ele>300.533</ele>
        <time>2019-10-08T08:27:00Z</time>
      </trkpt>
      <trkpt lat="45.06843" lon="5.67517">
        <ele>301.843</ele>
        <time>2019-10-08T08:27:30.001Z</time>
      </trkpt>
      <trkpt lat="45.06748" lon="5.67421">
        <ele>299.203</ele>
        <time>2019-10-08T08:28:00Z</time>
      </trkpt>
      <trkpt lat="45.06655" lon="5.67328">
        <ele>297.835</ele>
        <time>2019-10-08T08:28:30.001Z</time>
      </trkpt>
      <trkpt lat="45.06565" lon="5.67238">
        <ele>300.822</ele>
        <time>2019-10-08T08:29:00Z</time>
      </trkpt>
      <trkpt lat="45.06482" lon="5.67158">
        <ele>296.794</ele>
        <time>2019-10-08T08:29:30.001Z</time>
      </trkpt>
      <trkpt lat="45.06395" lon="5.67071">
        <ele>301.016</ele>
        <time>2019-10-08T08:30:00Z</time>
      </trkpt>
      <trkpt lat="45.06303" lon="5.66989">
        <ele>307.58</ele>
        <time>2019-10-08T08:30:30.001Z</time>
      </trkpt>
      <trkpt lat="45.0619" lon="5.66955">
        <ele>304.656</ele>
        <time>2019-10-08T08:31:00Z</time>
      </trkpt>
      <trkpt lat="45.06073" lon="5.6693">
        <ele>311.782</ele>
        <time>2019-10-08T08:31:30.001Z</time>
      </trkpt>
      <trkpt lat="45.05956" lon="5.66897">
        <ele>317.048</ele>
        <time>2019-10-08T08:32:00Z</time>
      </trkpt>
      <trkpt lat="45.05845" lon="5.66863">
        <ele>323.092</ele>
        <time>2019-10-08T08:32:30.001Z</time>
      </trkpt>
      <trkpt lat="45.05731" lon="5.66832">
        <ele>328.433</ele>
        <time>2019-10-08T08:33:00Z</time>
      </trkpt>
      <trkpt lat="45.05634" lon="5.66803">
        <ele>327.371</ele>
        <time>2019-10-08T08:33:30.001Z</time>
      </trkpt>
      <trkpt lat="45.05599" lon="5.66908">
        <ele>326.524</ele>
        <time>2019-10-08T08:34:00Z</time>
      </trkpt>
      <trkpt lat="45.05591" lon="5.6694">
        <ele>327.713</ele>
        <time>2019-10-08T08:43:30.001Z</time>
      </trkpt>
      <trkpt lat="45.05546" lon="5.66946">
        <ele>321.422</ele>
        <time>2019-10-08T08:48:15.001Z</time>
      </trkpt>
      <trkpt lat="45.05517" lon="5.66937">
        <ele>314.648</ele>
        <time>2019-10-08T08:48:48.001Z</time>
      </trkpt>
      <trkpt lat="45.05491" lon="5.66934">
        <ele>321.805</ele>
        <time>2019-10-08T08:49:30.001Z</time>
      </trkpt>
      <trkpt lat="45.05387" lon="5.66917">
        <ele>321.792</ele>
        <time>2019-10-08T08:50:06.001Z</time>
      </trkpt>
      <trkpt lat="45.05288" lon="5.66882">
        <ele>322.086</ele>
        <time>2019-10-08T08:50:36.001Z</time>
      </trkpt>
      <trkpt lat="45.05165" lon="5.66843">
        <ele>316.578</ele>
        <time>2019-10-08T08:51:06.001Z</time>
      </trkpt>
      <trkpt lat="45.0505" lon="5.66839">
        <ele>314.476</ele>
        <time>2019-10-08T08:51:36.001Z</time>
      </trkpt>
      <trkpt lat="45.04939" lon="5.66836">
        <ele>307.179</ele>
        <time>2019-10-08T08:52:06.001Z</time>
      </trkpt>
      <trkpt lat="45.04864" lon="5.66764">
        <ele>315.025</ele>
        <time>2019-10-08T08:52:36.001Z</time>
      </trkpt>
      <trkpt lat="45.0476" lon="5.66691">
        <ele>325.325</ele>
        <time>2019-10-08T08:53:06.001Z</time>
      </trkpt>
      <trkpt lat="45.04657" lon="5.66637">
        <ele>315.097</ele>
        <time>2019-10-08T08:53:36.001Z</time>
      </trkpt>
      <trkpt lat="45.04556" lon="5.66557">
        <ele>314.776</ele>
        <time>2019-10-08T08:54:09.001Z</time>
      </trkpt>
      <trkpt lat="45.04471" lon="5.66483">
        <ele>325.799</ele>
        <time>2019-10-08T08:54:39.001Z</time>
      </trkpt>
      <trkpt lat="45.04361" lon="5.66445">
        <ele>321.738</ele>
        <time>2019-10-08T08:55:09.001Z</time>
      </trkpt>
      <trkpt lat="45.04314" lon="5.66563">
        <ele>326.447</ele>
        <time>2019-10-08T08:55:39.001Z</time>
      </trkpt>
      <trkpt lat="45.04252" lon="5.66651">
        <ele>342.383</ele>
        <time>2019-10-08T08:56:09.001Z</time>
      </trkpt>
      <trkpt lat="45.04203" lon="5.6671">
        <ele>345.887</ele>
        <time>2019-10-08T08:56:39.001Z</time>
      </trkpt>
      <trkpt lat="45.04166" lon="5.66774">
        <ele>348.302</ele>
        <time>2019-10-08T08:57:15.001Z</time>
      </trkpt>
      <trkpt lat="45.04127" lon="5.66827">
        <ele>354.183</ele>
        <time>2019-10-08T08:57:45.001Z</time>
      </trkpt>
      <trkpt lat="45.04092" lon="5.66888">
        <ele>361.993</ele>
        <time>2019-10-08T08:58:18.001Z</time>
      </trkpt>
      <trkpt lat="45.04069" lon="5.66962">
        <ele>364.943</ele>
        <time>2019-10-08T08:58:54.001Z</time>
      </trkpt>
      <trkpt lat="45.04061" lon="5.67036">
        <ele>370.018</ele>
        <time>2019-10-08T08:59:24.001Z</time>
      </trkpt>
      <trkpt lat="45.04025" lon="5.671">
        <ele>375.066</ele>
        <time>2019-10-08T08:59:54.001Z</time>
      </trkpt>
      <trkpt lat="45.03968" lon="5.67148">
        <ele>372.174</ele>
        <time>2019-10-08T09:00:24.001Z</time>
      </trkpt>
      <trkpt lat="45.03903" lon="5.67165">
        <ele>377.086</ele>
        <time>2019-10-08T09:00:54.001Z</time>
      </trkpt>
      <trkpt lat="45.0384" lon="5.67148">
        <ele>388.155</ele>
        <time>2019-10-08T09:01:27.001Z</time>
      </trkpt>
      <trkpt lat="45.03786" lon="5.67096">
        <ele>393.941</ele>
        <time>2019-10-08T09:01:57.001Z</time>
      </trkpt>
      <trkpt lat="45.03744" lon="5.67022">
        <ele>397.164</ele>
        <time>2019-10-08T09:02:27.001Z</time>
      </trkpt>
      <trkpt lat="45.03695" lon="5.66968">
        <ele>401.506</ele>
        <time>2019-10-08T09:02:57.001Z</time>
      </trkpt>
      <trkpt lat="45.03643" lon="5.6691">
        <ele>401.663</ele>
        <time>2019-10-08T09:03:27.001Z</time>
      </trkpt>
      <trkpt lat="45.03596" lon="5.66845">
        <ele>406.623</ele>
        <time>2019-10-08T09:03:57.001Z</time>
      </trkpt>
      <trkpt lat="45.03557" lon="5.66767">
        <ele>410.883</ele>
        <time>2019-10-08T09:04:27.001Z</time>
      </trkpt>
      <trkpt lat="45.03525" lon="5.66691">
        <ele>419.81</ele>
        <time>2019-10-08T09:04:57.001Z</time>
      </trkpt>
      <trkpt lat="45.03485" lon="5.66626">
        <ele>426.26</ele>
        <time>2019-10-08T09:05:27.001Z</time>
      </trkpt>
      <trkpt lat="45.03427" lon="5.66575">
        <ele>425.693</ele>
        <time>2019-10-08T09:05:57.001Z</time>
      </trkpt>
      <trkpt lat="45.03382" lon="5.66513">
        <ele>427.8</ele>
        <time>2019-10-08T09:06:27.001Z</time>
      </trkpt>
      <trkpt lat="45.03377" lon="5.66431">
        <ele>424.131</ele>
        <time>2019-10-08T09:06:57.001Z</time>
      </trkpt>
      <trkpt lat="45.03406" lon="5.66359">
        <ele>427.943</ele>
        <time>2019-10-08T09:07:27.001Z</time>
      </trkpt>
      <trkpt lat="45.0343" lon="5.66282">
        <ele>433.095</ele>
        <time>2019-10-08T09:07:57.001Z</time>
      </trkpt>
      <trkpt lat="45.03424" lon="5.66182">
        <ele>436.173</ele>
        <time>2019-10-08T09:08:27.001Z</time>
      </trkpt>
      <trkpt lat="45.03369" lon="5.66119">
        <ele>444.645</ele>
        <time>2019-10-08T09:08:57.001Z</time>
      </trkpt>
      <trkpt lat="45.03294" lon="5.66131">
        <ele>440.899</ele>
        <time>2019-10-08T09:09:27.001Z</time>
      </trkpt>
      <trkpt lat="45.03247" lon="5.66215">
        <ele>444.109</ele>
        <time>2019-10-08T09:09:57.001Z</time>
      </trkpt>
      <trkpt lat="45.03206" lon="5.66301">
        <ele>445.91</ele>
        <time>2019-10-08T09:10:27.001Z</time>
      </trkpt>
      <trkpt lat="45.03163" lon="5.6637">
        <ele>444.995</ele>
        <time>2019-10-08T09:10:57.001Z</time>
      </trkpt>
      <trkpt lat="45.03103" lon="5.66409">
        <ele>455.778</ele>
        <time>2019-10-08T09:11:27.001Z</time>
      </trkpt>
      <trkpt lat="45.0304" lon="5.66435">
        <ele>464.641</ele>
        <time>2019-10-08T09:11:57.001Z</time>
      </trkpt>
      <trkpt lat="45.02978" lon="5.66423">
        <ele>472.366</ele>
        <time>2019-10-08T09:12:27.001Z</time>
      </trkpt>
      <trkpt lat="45.02917" lon="5.66375">
        <ele>472.694</ele>
        <time>2019-10-08T09:12:57.001Z</time>
      </trkpt>
      <trkpt lat="45.02863" lon="5.66326">
        <ele>471.829</ele>
        <time>2019-10-08T09:13:27.001Z</time>
      </trkpt>
      <trkpt lat="45.0281" lon="5.6628">
        <ele>471.82</ele>
        <time>2019-10-08T09:13:57.001Z</time>
      </trkpt>
      <trkpt lat="45.02756" lon="5.66238">
        <ele>480.495</ele>
        <time>2019-10-08T09:14:27.001Z</time>
      </trkpt>
      <trkpt lat="45.02694" lon="5.66208">
        <ele>479.366</ele>
        <time>2019-10-08T09:14:57.001Z</time>
      </trkpt>
      <trkpt lat="45.0262" lon="5.66202">
        <ele>482.304</ele>
        <time>2019-10-08T09:15:27.001Z</time>
      </trkpt>
      <trkpt lat="45.02538" lon="5.66203">
        <ele>478.82</ele>
        <time>2019-10-08T09:15:57.001Z</time>
      </trkpt>
      <trkpt lat="45.02466" lon="5.66189">
        <ele>490.585</ele>
        <time>2019-10-08T09:16:27.001Z</time>
      </trkpt>
      <trkpt lat="45.02393" lon="5.66161">
        <ele>489.786</ele>
        <time>2019-10-08T09:16:57.001Z</time>
      </trkpt>
      <trkpt lat="45.02322" lon="5.66137">
        <ele>500.207</ele>
        <time>2019-10-08T09:17:27.001Z</time>
      </trkpt>
      <trkpt lat="45.02252" lon="5.66113">
        <ele>501.586</ele>
        <time>2019-10-08T09:17:57.001Z</time>
      </trkpt>
      <trkpt lat="45.02183" lon="5.66101">
        <ele>500.257</ele>
        <time>2019-10-08T09:18:27.001Z</time>
      </trkpt>
      <trkpt lat="45.02112" lon="5.66077">
        <ele>501.847</ele>
        <time>2019-10-08T09:18:57.001Z</time>
      </trkpt>
      <trkpt lat="45.02039" lon="5.66062">
        <ele>505.276</ele>
        <time>2019-10-08T09:19:27.001Z</time>
      </trkpt>
      <trkpt lat="45.01975" lon="5.66053">
        <ele>506.615</ele>
        <time>2019-10-08T09:19:57.001Z</time>
      </trkpt>
      <trkpt lat="45.01909" lon="5.66042">
        <ele>510.682</ele>
        <time>2019-10-08T09:20:27.001Z</time>
      </trkpt>
      <trkpt lat="45.01846" lon="5.66013">
        <ele>513.737</ele>
        <time>2019-10-08T09:21:00Z</time>
      </trkpt>
      <trkpt lat="45.01788" lon="5.6597">
        <ele>520.865</ele>
        <time>2019-10-08T09:21:30.001Z</time>
      </trkpt>
      <trkpt lat="45.0172" lon="5.65919">
        <ele>530.931</ele>
        <time>2019-10-08T09:22:03.001Z</time>
      </trkpt>
      <trkpt lat="45.01651" lon="5.65885">
        <ele>530.602</ele>
        <time>2019-10-08T09:22:33.001Z</time>
      </trkpt>
      <trkpt lat="45.01581" lon="5.65855">
        <ele>529.21</ele>
        <time>2019-10-08T09:23:03.001Z</time>
      </trkpt>
      <trkpt lat="45.01508" lon="5.65826">
        <ele>526.874</ele>
        <time>2019-10-08T09:23:33.001Z</time>
      </trkpt>
      <trkpt lat="45.0144" lon="5.65801">
        <ele>536.586</ele>
        <time>2019-10-08T09:24:03.001Z</time>
      </trkpt>
      <trkpt lat="45.0137" lon="5.6579">
        <ele>544.983</ele>
        <time>2019-10-08T09:24:33.001Z</time>
      </trkpt>
      <trkpt lat="45.01298" lon="5.65791">
        <ele>557.304</ele>
        <time>2019-10-08T09:25:03.001Z</time>
      </trkpt>
      <trkpt lat="45.0122" lon="5.65783">
        <ele>550.104</ele>
        <time>2019-10-08T09:25:33.001Z</time>
      </trkpt>
      <trkpt lat="45.01154" lon="5.65766">
        <ele>551.252</ele>
        <time>2019-10-08T09:26:03.001Z</time>
      </trkpt>
      <trkpt lat="45.01084" lon="5.65742">
        <ele>558.771</ele>
        <time>2019-10-08T09:26:33.001Z</time>
      </trkpt>
      <trkpt lat="45.01011" lon="5.65706">
        <ele>562.098</ele>
        <time>2019-10-08T09:27:03.001Z</time>
      </trkpt>
      <trkpt lat="45.00947" lon="5.65671">
        <ele>560.613</ele>
        <time>2019-10-08T09:27:33.001Z</time>
      </trkpt>
      <trkpt lat="45.00891" lon="5.65641">
        <ele>566.864</ele>
        <time>2019-10-08T09:28:03.001Z</time>
      </trkpt>
      <trkpt lat="45.00827" lon="5.65616">
        <ele>568.677</ele>
        <time>2019-10-08T09:28:33.001Z</time>
      </trkpt>
      <trkpt lat="45.00765" lon="5.65594">
        <ele>568.62</ele>
        <time>2019-10-08T09:29:03.001Z</time>
      </trkpt>
      <trkpt lat="45.00702" lon="5.65567">
        <ele>573.113</ele>
        <time>2019-10-08T09:29:33.001Z</time>
      </trkpt>
      <trkpt lat="45.00643" lon="5.65533">
        <ele>573.197</ele>
        <time>2019-10-08T09:30:03.001Z</time>
      </trkpt>
      <trkpt lat="45.0058" lon="5.65504">
        <ele>579.242</ele>
        <time>2019-10-08T09:30:33.001Z</time>
      </trkpt>
      <trkpt lat="45.00512" lon="5.65492">
        <ele>583.276</ele>
        <time>2019-10-08T09:31:03.001Z</time>
      </trkpt>
      <trkpt lat="45.00442" lon="5.65488">
        <ele>589.791</ele>
        <time>2019-10-08T09:31:33.001Z</time>
      </trkpt>
      <trkpt lat="45.0037" lon="5.65478">
        <ele>581.988</ele>
        <time>2019-10-08T09:32:03.001Z</time>
      </trkpt>
      <trkpt lat="45.00303" lon="5.65468">
        <ele>585.144</ele>
        <time>2019-10-08T09:32:33.001Z</time>
      </trkpt>
      <trkpt lat="45.00232" lon="5.65443">
        <ele>588.052</ele>
        <time>2019-10-08T09:33:03.001Z</time>
      </trkpt>
      <trkpt lat="45.00158" lon="5.65415">
        <ele>592.608</ele>
        <time>2019-10-08T09:33:33.001Z</time>
      </trkpt>
      <trkpt lat="45.00095" lon="5.6539">
        <ele>597.266</ele>
        <time>2019-10-08T09:34:03.001Z</time>
      </trkpt>
      <trkpt lat="45.00025" lon="5.65361">
        <ele>599.99</ele>
        <time>2019-10-08T09:34:33.001Z</time>
      </trkpt>
      <trkpt lat="44.99956" lon="5.65327">
        <ele>602.33</ele>
        <time>2019-10-08T09:35:03.001Z</time>
      </trkpt>
      <trkpt lat="44.99885" lon="5.65285">
        <ele>597.23</ele>
        <time>2019-10-08T09:35:33.001Z</time>
      </trkpt>
      <trkpt lat="44.99814" lon="5.65245">
        <ele>598.273</ele>
        <time>2019-10-08T09:36:03.001Z</time>
      </trkpt>
      <trkpt lat="44.99738" lon="5.65205">
        <ele>601.262</ele>
        <time>2019-10-08T09:36:33.001Z</time>
      </trkpt>
      <trkpt lat="44.99666" lon="5.65171">
        <ele>603.379</ele>
        <time>2019-10-08T09:37:03.001Z</time>
      </trkpt>
      <trkpt lat="44.99592" lon="5.65141">
        <ele>602.291</ele>
        <time>2019-10-08T09:37:33.001Z</time>
      </trkpt>
      <trkpt lat="44.9952" lon="5.65113">
        <ele>604.52</ele>
        <time>2019-10-08T09:38:03.001Z</time>
      </trkpt>
      <trkpt lat="44.99447" lon="5.65086">
        <ele>608.537</ele>
        <time>2019-10-08T09:38:33.001Z</time>
      </trkpt>
      <trkpt lat="44.99378" lon="5.65056">
        <ele>611.974</ele>
        <time>2019-10-08T09:39:03.001Z</time>
      </trkpt>
      <trkpt lat="44.9932" lon="5.65032">
        <ele>616.195</ele>
        <time>2019-10-08T09:39:33.001Z</time>
      </trkpt>
      <trkpt lat="44.99263" lon="5.6501">
        <ele>617.385</ele>
        <time>2019-10-08T09:40:03.001Z</time>
      </trkpt>
      <trkpt lat="44.99202" lon="5.64985">
        <ele>618.231</ele>
        <time>2019-10-08T09:40:33.001Z</time>
      </trkpt>
      <trkpt lat="44.99127" lon="5.64968">
        <ele>623.973</ele>
        <time>2019-10-08T09:41:03.001Z</time>
      </trkpt>
      <trkpt lat="44.99052" lon="5.64956">
        <ele>627.883</ele>
        <time>2019-10-08T09:41:33.001Z</time>
      </trkpt>
      <trkpt lat="44.98986" lon="5.64944">
        <ele>634.034</ele>
        <time>2019-10-08T09:42:06.001Z</time>
      </trkpt>
      <trkpt lat="44.98926" lon="5.64917">
        <ele>640.353</ele>
        <time>2019-10-08T09:42:39.001Z</time>
      </trkpt>
      <trkpt lat="44.98876" lon="5.64888">
        <ele>644.704</ele>
        <time>2019-10-08T09:43:09.001Z</time>
      </trkpt>
      <trkpt lat="44.98827" lon="5.64832">
        <ele>645.537</ele>
        <time>2019-10-08T09:43:39.001Z</time>
      </trkpt>
      <trkpt lat="44.9878" lon="5.64889">
        <ele>644.78</ele>
        <time>2019-10-08T09:44:09.001Z</time>
      </trkpt>
      <trkpt lat="44.98722" lon="5.64847">
        <ele>650.217</ele>
        <time>2019-10-08T09:44:39.001Z</time>
      </trkpt>
      <trkpt lat="44.98668" lon="5.64817">
        <ele>653.808</ele>
        <time>2019-10-08T09:45:09.001Z</time>
      </trkpt>
      <trkpt lat="44.98615" lon="5.64786">
        <ele>658.898</ele>
        <time>2019-10-08T09:45:42.001Z</time>
      </trkpt>
      <trkpt lat="44.98552" lon="5.64759">
        <ele>667.319</ele>
        <time>2019-10-08T09:46:24.001Z</time>
      </trkpt>
      <trkpt lat="44.98477" lon="5.64754">
        <ele>668.057</ele>
        <time>2019-10-08T09:47:03.001Z</time>
      </trkpt>
      <trkpt lat="44.98409" lon="5.64721">
        <ele>671.916</ele>
        <time>2019-10-08T09:47:51.001Z</time>
      </trkpt>
      <trkpt lat="44.98346" lon="5.64681">
        <ele>680.288</ele>
        <time>2019-10-08T09:48:36.001Z</time>
      </trkpt>
      <trkpt lat="44.98292" lon="5.6467">
        <ele>683.431</ele>
        <time>2019-10-08T09:49:09.001Z</time>
      </trkpt>
      <trkpt lat="44.98231" lon="5.64648">
        <ele>687.434</ele>
        <time>2019-10-08T09:49:48.001Z</time>
      </trkpt>
      <trkpt lat="44.98165" lon="5.64646">
        <ele>687.738</ele>
        <time>2019-10-08T09:50:36.001Z</time>
      </trkpt>
      <trkpt lat="44.98081" lon="5.64649">
        <ele>695.861</ele>
        <time>2019-10-08T09:51:15.001Z</time>
      </trkpt>
      <trkpt lat="44.98025" lon="5.64638">
        <ele>698.907</ele>
        <time>2019-10-08T09:51:45.001Z</time>
      </trkpt>
      <trkpt lat="44.97967" lon="5.6463">
        <ele>703.336</ele>
        <time>2019-10-08T09:52:18.001Z</time>
      </trkpt>
      <trkpt lat="44.97908" lon="5.64606">
        <ele>705.759</ele>
        <time>2019-10-08T09:52:51.001Z</time>
      </trkpt>
      <trkpt lat="44.97855" lon="5.6458">
        <ele>709.069</ele>
        <time>2019-10-08T09:53:21.001Z</time>
      </trkpt>
      <trkpt lat="44.97806" lon="5.64548">
        <ele>709.89</ele>
        <time>2019-10-08T09:53:51.001Z</time>
      </trkpt>
      <trkpt lat="44.97754" lon="5.64516">
        <ele>712.41</ele>
        <time>2019-10-08T09:54:27.001Z</time>
      </trkpt>
      <trkpt lat="44.97695" lon="5.64499">
        <ele>718.023</ele>
        <time>2019-10-08T09:55:03.001Z</time>
      </trkpt>
      <trkpt lat="44.97625" lon="5.645">
        <ele>724.768</ele>
        <time>2019-10-08T09:55:36.001Z</time>
      </trkpt>
      <trkpt lat="44.97564" lon="5.64491">
        <ele>729.007</ele>
        <time>2019-10-08T09:56:15.001Z</time>
      </trkpt>
      <trkpt lat="44.97498" lon="5.64483">
        <ele>731.638</ele>
        <time>2019-10-08T09:56:54.001Z</time>
      </trkpt>
      <trkpt lat="44.97439" lon="5.6447">
        <ele>735.475</ele>
        <time>2019-10-08T09:57:33.001Z</time>
      </trkpt>
      <trkpt lat="44.9738" lon="5.64453">
        <ele>743.038</ele>
        <time>2019-10-08T09:58:09.001Z</time>
      </trkpt>
      <trkpt lat="44.97324" lon="5.64433">
        <ele>745.764</ele>
        <time>2019-10-08T09:58:45.001Z</time>
      </trkpt>
      <trkpt lat="44.97274" lon="5.64415">
        <ele>749.184</ele>
        <time>2019-10-08T09:59:18.001Z</time>
      </trkpt>
      <trkpt lat="44.97274" lon="5.64418">
        <ele>748.523</ele>
        <time>2019-10-08T10:10:00Z</time>
      </trkpt>
      <trkpt lat="44.97213" lon="5.64395">
        <ele>750.481</ele>
        <time>2019-10-08T10:10:30.001Z</time>
      </trkpt>
      <trkpt lat="44.97153" lon="5.64376">
        <ele>750.684</ele>
        <time>2019-10-08T10:11:00Z</time>
      </trkpt>
      <trkpt lat="44.97088" lon="5.64353">
        <ele>754.632</ele>
        <time>2019-10-08T10:11:30.001Z</time>
      </trkpt>
      <trkpt lat="44.9703" lon="5.64331">
        <ele>760.94</ele>
        <time>2019-10-08T10:12:00Z</time>
      </trkpt>
      <trkpt lat="44.96975" lon="5.64311">
        <ele>763.077</ele>
        <time>2019-10-08T10:12:30.001Z</time>
      </trkpt>
      <trkpt lat="44.96921" lon="5.64302">
        <ele>768.053</ele>
        <time>2019-10-08T10:13:00Z</time>
      </trkpt>
      <trkpt lat="44.96858" lon="5.64298">
        <ele>774.359</ele>
        <time>2019-10-08T10:13:36.001Z</time>
      </trkpt>
      <trkpt lat="44.9679" lon="5.64305">
        <ele>777.383</ele>
        <time>2019-10-08T10:14:15.001Z</time>
      </trkpt>
      <trkpt lat="44.96722" lon="5.64318">
        <ele>778.742</ele>
        <time>2019-10-08T10:14:51.001Z</time>
      </trkpt>
      <trkpt lat="44.96633" lon="5.64339">
        <ele>779.756</ele>
        <time>2019-10-08T10:15:30.001Z</time>
      </trkpt>
      <trkpt lat="44.96563" lon="5.64368">
        <ele>784.193</ele>
        <time>2019-10-08T10:16:00Z</time>
      </trkpt>
      <trkpt lat="44.96495" lon="5.64406">
        <ele>789.888</ele>
        <time>2019-10-08T10:16:30.001Z</time>
      </trkpt>
      <trkpt lat="44.96435" lon="5.64456">
        <ele>788.044</ele>
        <time>2019-10-08T10:17:00Z</time>
      </trkpt>
      <trkpt lat="44.96374" lon="5.64501">
        <ele>786.286</ele>
        <time>2019-10-08T10:17:30.001Z</time>
      </trkpt>
      <trkpt lat="44.96319" lon="5.6455">
        <ele>792.052</ele>
        <time>2019-10-08T10:18:00Z</time>
      </trkpt>
      <trkpt lat="44.9627" lon="5.64599">
        <ele>798.797</ele>
        <time>2019-10-08T10:18:30.001Z</time>
      </trkpt>
      <trkpt lat="44.96213" lon="5.64648">
        <ele>801.007</ele>
        <time>2019-10-08T10:19:00Z</time>
      </trkpt>
      <trkpt lat="44.96156" lon="5.64694">
        <ele>804.866</ele>
        <time>2019-10-08T10:19:30.001Z</time>
      </trkpt>
      <trkpt lat="44.96105" lon="5.64747">
        <ele>806.89</ele>
        <time>2019-10-08T10:20:00Z</time>
      </trkpt>
      <trkpt lat="44.9605" lon="5.64799">
        <ele>809.814</ele>
        <time>2019-10-08T10:20:30.001Z</time>
      </trkpt>
      <trkpt lat="44.96011" lon="5.64876">
        <ele>814.033</ele>
        <time>2019-10-08T10:21:00Z</time>
      </trkpt>
      <trkpt lat="44.95983" lon="5.64972">
        <ele>816.396</ele>
        <time>2019-10-08T10:21:30.001Z</time>
      </trkpt>
      <trkpt lat="44.95962" lon="5.65085">
        <ele>819.475</ele>
        <time>2019-10-08T10:22:00Z</time>
      </trkpt>
      <trkpt lat="44.95919" lon="5.65189">
        <ele>819.589</ele>
        <time>2019-10-08T10:22:30.001Z</time>
      </trkpt>
      <trkpt lat="44.95876" lon="5.65282">
        <ele>818.935</ele>
        <time>2019-10-08T10:23:00Z</time>
      </trkpt>
      <trkpt lat="44.95819" lon="5.65359">
        <ele>821.717</ele>
        <time>2019-10-08T10:23:30.001Z</time>
      </trkpt>
      <trkpt lat="44.95754" lon="5.65424">
        <ele>826.016</ele>
        <time>2019-10-08T10:24:00Z</time>
      </trkpt>
      <trkpt lat="44.95686" lon="5.65477">
        <ele>826.517</ele>
        <time>2019-10-08T10:24:30.001Z</time>
      </trkpt>
      <trkpt lat="44.95607" lon="5.65496">
        <ele>828.627</ele>
        <time>2019-10-08T10:25:00Z</time>
      </trkpt>
      <trkpt lat="44.9553" lon="5.65476">
        <ele>833.117</ele>
        <time>2019-10-08T10:25:30.001Z</time>
      </trkpt>
      <trkpt lat="44.95452" lon="5.65457">
        <ele>836.342</ele>
        <time>2019-10-08T10:26:00Z</time>
      </trkpt>
      <trkpt lat="44.95383" lon="5.65436">
        <ele>836.451</ele>
        <time>2019-10-08T10:26:30.001Z</time>
      </trkpt>
      <trkpt lat="44.95312" lon="5.65411">
        <ele>839.591</ele>
        <time>2019-10-08T10:27:00Z</time>
      </trkpt>
      <trkpt lat="44.9523" lon="5.65393">
        <ele>843.03</ele>
        <time>2019-10-08T10:27:30.001Z</time>
      </trkpt>
      <trkpt lat="44.95148" lon="5.65368">
        <ele>844.918</ele>
        <time>2019-10-08T10:28:00Z</time>
      </trkpt>
      <trkpt lat="44.95064" lon="5.65335">
        <ele>844.632</ele>
        <time>2019-10-08T10:28:30.001Z</time>
      </trkpt>
      <trkpt lat="44.94999" lon="5.65301">
        <ele>845.797</ele>
        <time>2019-10-08T10:29:00Z</time>
      </trkpt>
      <trkpt lat="44.9495" lon="5.65497">
        <ele>844.995</ele>
        <time>2019-10-08T10:29:30.001Z</time>
      </trkpt>
      <trkpt lat="44.94935" lon="5.65518">
        <ele>844.21</ele>
        <time>2019-10-08T10:31:00Z</time>
      </trkpt>
      <trkpt lat="44.94824" lon="5.65544">
        <ele>833.384</ele>
        <time>2019-10-08T10:31:33.001Z</time>
      </trkpt>
      <trkpt lat="44.94625" lon="5.65581">
        <ele>815.052</ele>
        <time>2019-10-08T10:32:03.001Z</time>
      </trkpt>
      <trkpt lat="44.94559" lon="5.65623">
        <ele>808.266</ele>
        <time>2019-10-08T10:36:48.001Z</time>
      </trkpt>
      <trkpt lat="44.94461" lon="5.65595">
        <ele>805.778</ele>
        <time>2019-10-08T10:37:51.001Z</time>
      </trkpt>
      <trkpt lat="44.9423" lon="5.65537">
        <ele>784.894</ele>
        <time>2019-10-08T10:38:21.001Z</time>
      </trkpt>
      <trkpt lat="44.93932" lon="5.65473">
        <ele>761.5</ele>
        <time>2019-10-08T10:38:51.001Z</time>
      </trkpt>
      <trkpt lat="44.93731" lon="5.65269">
        <ele>752.442</ele>
        <time>2019-10-08T10:39:21.001Z</time>
      </trkpt>
      <trkpt lat="44.93543" lon="5.65151">
        <ele>748.249</ele>
        <time>2019-10-08T10:39:51.001Z</time>
      </trkpt>
      <trkpt lat="44.93495" lon="5.65066">
        <ele>749.482</ele>
        <time>2019-10-08T10:40:21.001Z</time>
      </trkpt>
      <trkpt lat="44.93425" lon="5.64983">
        <ele>761.291</ele>
        <time>2019-10-08T10:40:51.001Z</time>
      </trkpt>
      <trkpt lat="44.93239" lon="5.64991">
        <ele>757.063</ele>
        <time>2019-10-08T10:41:21.001Z</time>
      </trkpt>
      <trkpt lat="44.92951" lon="5.65168">
        <ele>742.621</ele>
        <time>2019-10-08T10:41:51.001Z</time>
      </trkpt>
      <trkpt lat="44.92729" lon="5.65459">
        <ele>709.243</ele>
        <time>2019-10-08T10:42:21.001Z</time>
      </trkpt>
      <trkpt lat="44.9243" lon="5.65449">
        <ele>686.765</ele>
        <time>2019-10-08T10:42:51.001Z</time>
      </trkpt>
      <trkpt lat="44.92122" lon="5.65487">
        <ele>670.292</ele>
        <time>2019-10-08T10:43:21.001Z</time>
      </trkpt>
      <trkpt lat="44.91885" lon="5.65707">
        <ele>645.416</ele>
        <time>2019-10-08T10:43:51.001Z</time>
      </trkpt>
      <trkpt lat="44.91655" lon="5.65781">
        <ele>621.858</ele>
        <time>2019-10-08T10:44:21.001Z</time>
      </trkpt>
      <trkpt lat="44.91564" lon="5.65756">
        <ele>618.248</ele>
        <time>2019-10-08T10:47:24.001Z</time>
      </trkpt>
      <trkpt lat="44.91411" lon="5.65747">
        <ele>610.474</ele>
        <time>2019-10-08T10:47:54.001Z</time>
      </trkpt>
      <trkpt lat="44.91284" lon="5.65726">
        <ele>606.463</ele>
        <time>2019-10-08T10:48:24.001Z</time>
      </trkpt>
      <trkpt lat="44.9126" lon="5.65968">
        <ele>600.864</ele>
        <time>2019-10-08T10:48:54.001Z</time>
      </trkpt>
      <trkpt lat="44.9124" lon="5.66324">
        <ele>588.394</ele>
        <time>2019-10-08T10:49:24.001Z</time>
      </trkpt>
      <trkpt lat="44.91105" lon="5.66633">
        <ele>574.342</ele>
        <time>2019-10-08T10:49:54.001Z</time>
      </trkpt>
      <trkpt lat="44.9087" lon="5.66778">
        <ele>561.638</ele>
        <time>2019-10-08T10:50:24.001Z</time>
      </trkpt>
      <trkpt lat="44.90621" lon="5.66813">
        <ele>550.234</ele>
        <time>2019-10-08T10:50:54.001Z</time>
      </trkpt>
      <trkpt lat="44.90376" lon="5.66871">
        <ele>539.806</ele>
        <time>2019-10-08T10:51:24.001Z</time>
      </trkpt>
      <trkpt lat="44.90162" lon="5.66962">
        <ele>537.544</ele>
        <time>2019-10-08T10:51:54.001Z</time>
      </trkpt>
      <trkpt lat="44.90053" lon="5.67043">
        <ele>536.826</ele>
        <time>2019-10-08T10:53:03.001Z</time>
      </trkpt>
      <trkpt lat="44.9005" lon="5.67136">
        <ele>533.018</ele>
        <time>2019-10-08T10:54:00Z</time>
      </trkpt>
      <trkpt lat="44.89763" lon="5.67364">
        <ele>500.022</ele>
        <time>2019-10-08T10:54:30.001Z</time>
      </trkpt>
      <trkpt lat="44.89647" lon="5.67367">
        <ele>494.833</ele>
        <time>2019-10-08T10:55:09.001Z</time>
      </trkpt>
      <trkpt lat="44.89624" lon="5.67355">
        <ele>508.062</ele>
        <time>2019-10-08T11:02:30.001Z</time>
      </trkpt>
      <trkpt lat="44.89574" lon="5.67356">
        <ele>516.381</ele>
        <time>2019-10-08T11:03:18.001Z</time>
      </trkpt>
      <trkpt lat="44.89507" lon="5.67358">
        <ele>518.256</ele>
        <time>2019-10-08T11:04:18.001Z</time>
      </trkpt>
      <trkpt lat="44.89458" lon="5.67364">
        <ele>521.432</ele>
        <time>2019-10-08T11:05:24.001Z</time>
      </trkpt>
      <trkpt lat="44.89414" lon="5.67349">
        <ele>525.754</ele>
        <time>2019-10-08T11:06:30.001Z</time>
      </trkpt>
      <trkpt lat="44.89464" lon="5.67287">
        <ele>527.832</ele>
        <time>2019-10-08T11:07:00Z</time>
      </trkpt>
      <trkpt lat="44.89512" lon="5.67247">
        <ele>532.219</ele>
        <time>2019-10-08T11:07:30.001Z</time>
      </trkpt>
      <trkpt lat="44.89506" lon="5.67238">
        <ele>533.59</ele>
        <time>2019-10-08T11:08:30.001Z</time>
      </trkpt>
      <trkpt lat="44.89452" lon="5.67256">
        <ele>530.943</ele>
        <time>2019-10-08T11:09:45.001Z</time>
      </trkpt>
      <trkpt lat="44.89386" lon="5.67274">
        <ele>531.723</ele>
        <time>2019-10-08T11:10:15.001Z</time>
      </trkpt>
      <trkpt lat="44.89315" lon="5.67295">
        <ele>534.78</ele>
        <time>2019-10-08T11:10:45.001Z</time>
      </trkpt>
      <trkpt lat="44.89261" lon="5.67302">
        <ele>536.657</ele>
        <time>2019-10-08T11:13:00Z</time>
      </trkpt>
      <trkpt lat="44.89173" lon="5.67305">
        <ele>537.236</ele>
        <time>2019-10-08T11:13:30.001Z</time>
      </trkpt>
      <trkpt lat="44.89075" lon="5.67327">
        <ele>533.127</ele>
        <time>2019-10-08T11:14:00Z</time>
      </trkpt>
      <trkpt lat="44.88971" lon="5.67336">
        <ele>527.443</ele>
        <time>2019-10-08T11:14:30.001Z</time>
      </trkpt>
      <trkpt lat="44.88892" lon="5.6735">
        <ele>525.017</ele>
        <time>2019-10-08T11:15:00Z</time>
      </trkpt>
      <trkpt lat="44.88818" lon="5.67364">
        <ele>523.705</ele>
        <time>2019-10-08T11:15:30.001Z</time>
      </trkpt>
      <trkpt lat="44.88738" lon="5.67387">
        <ele>523.132</ele>
        <time>2019-10-08T11:16:00Z</time>
      </trkpt>
      <trkpt lat="44.88645" lon="5.67412">
        <ele>527.553</ele>
        <time>2019-10-08T11:16:30.001Z</time>
      </trkpt>
      <trkpt lat="44.88558" lon="5.67428">
        <ele>528.371</ele>
        <time>2019-10-08T11:17:00Z</time>
      </trkpt>
      <trkpt lat="44.88478" lon="5.67465">
        <ele>529.485</ele>
        <time>2019-10-08T11:17:30.001Z</time>
      </trkpt>
      <trkpt lat="44.88393" lon="5.67486">
        <ele>529.435</ele>
        <time>2019-10-08T11:18:00Z</time>
      </trkpt>
      <trkpt lat="44.88329" lon="5.67523">
        <ele>534.544</ele>
        <time>2019-10-08T11:18:30.001Z</time>
      </trkpt>
      <trkpt lat="44.88267" lon="5.67564">
        <ele>540.562</ele>
        <time>2019-10-08T11:19:00Z</time>
      </trkpt>
      <trkpt lat="44.88214" lon="5.67571">
        <ele>541.606</ele>
        <time>2019-10-08T11:19:33.001Z</time>
      </trkpt>
      <trkpt lat="44.8819" lon="5.67572">
        <ele>544.651</ele>
        <time>2019-10-08T11:20:15.001Z</time>
      </trkpt>
      <trkpt lat="44.8816" lon="5.67579">
        <ele>552.19</ele>
        <time>2019-10-08T11:20:48.001Z</time>
      </trkpt>
      <trkpt lat="44.88133" lon="5.67581">
        <ele>554.754</ele>
        <time>2019-10-08T11:21:33.001Z</time>
      </trkpt>
      <trkpt lat="44.88096" lon="5.67589">
        <ele>556.206</ele>
        <time>2019-10-08T11:22:27.001Z</time>
      </trkpt>
      <trkpt lat="44.88041" lon="5.67618">
        <ele>565.281</ele>
        <time>2019-10-08T11:22:57.001Z</time>
      </trkpt>
      <trkpt lat="44.87981" lon="5.67651">
        <ele>565.335</ele>
        <time>2019-10-08T11:23:27.001Z</time>
      </trkpt>
      <trkpt lat="44.87878" lon="5.677">
        <ele>564.644</ele>
        <time>2019-10-08T11:23:57.001Z</time>
      </trkpt>
      <trkpt lat="44.87789" lon="5.67711">
        <ele>568.684</ele>
        <time>2019-10-08T11:24:27.001Z</time>
      </trkpt>
      <trkpt lat="44.87692" lon="5.67724">
        <ele>570.017</ele>
        <time>2019-10-08T11:24:57.001Z</time>
      </trkpt>
      <trkpt lat="44.87588" lon="5.6772">
        <ele>568.802</ele>
        <time>2019-10-08T11:25:27.001Z</time>
      </trkpt>
      <trkpt lat="44.87516" lon="5.67696">
        <ele>567.244</ele>
        <time>2019-10-08T11:25:57.001Z</time>
      </trkpt>
      <trkpt lat="44.87423" lon="5.67694">
        <ele>567.937</ele>
        <time>2019-10-08T11:26:27.001Z</time>
      </trkpt>
      <trkpt lat="44.87323" lon="5.67658">
        <ele>561.49</ele>
        <time>2019-10-08T11:26:57.001Z</time>
      </trkpt>
      <trkpt lat="44.87283" lon="5.67619">
        <ele>557.918</ele>
        <time>2019-10-08T11:28:24.001Z</time>
      </trkpt>
      <trkpt lat="44.87311" lon="5.67651">
        <ele>555.273</ele>
        <time>2019-10-08T11:29:45.001Z</time>
      </trkpt>
      <trkpt lat="44.8735" lon="5.67669">
        <ele>556.393</ele>
        <time>2019-10-08T11:34:15.001Z</time>
      </trkpt>
      <trkpt lat="44.87321" lon="5.67667">
        <ele>556.627</ele>
        <time>2019-10-08T11:34:54.001Z</time>
      </trkpt>
      <trkpt lat="44.87362" lon="5.67697">
        <ele>554.884</ele>
        <time>2019-10-08T11:35:36.001Z</time>
      </trkpt>
      <trkpt lat="44.87297" lon="5.67672">
        <ele>552.65</ele>
        <time>2019-10-08T11:36:21.001Z</time>
      </trkpt>
      <trkpt lat="44.87345" lon="5.67716">
        <ele>552.357</ele>
        <time>2019-10-08T11:36:51.001Z</time>
      </trkpt>
      <trkpt lat="44.87306" lon="5.67708">
        <ele>546.618</ele>
        <time>2019-10-08T11:37:36.001Z</time>
      </trkpt>
      <trkpt lat="44.8734" lon="5.67749">
        <ele>542.776</ele>
        <time>2019-10-08T11:38:27.001Z</time>
      </trkpt>
      <trkpt lat="44.87298" lon="5.67738">
        <ele>538.294</ele>
        <time>2019-10-08T11:40:21.001Z</time>
      </trkpt>
      <trkpt lat="44.87289" lon="5.67733">
        <ele>536.207</ele>
        <time>2019-10-08T11:41:36.001Z</time>
      </trkpt>
      <trkpt lat="44.87324" lon="5.67745">
        <ele>535.582</ele>
        <time>2019-10-08T11:58:48.001Z</time>
      </trkpt>
      <trkpt lat="44.87326" lon="5.67748">
        <ele>536.304</ele>
        <time>2019-10-08T12:02:18.001Z</time>
      </trkpt>
      <trkpt lat="44.87316" lon="5.67742">
        <ele>538.449</ele>
        <time>2019-10-08T12:04:24.001Z</time>
      </trkpt>
      <trkpt lat="44.87266" lon="5.67715">
        <ele>534.682</ele>
        <time>2019-10-08T12:05:27.001Z</time>
      </trkpt>
      <trkpt lat="44.87229" lon="5.67695">
        <ele>531.028</ele>
        <time>2019-10-08T12:06:30.001Z</time>
      </trkpt>
      <trkpt lat="44.87191" lon="5.67685">
        <ele>527.486</ele>
        <time>2019-10-08T12:07:21.001Z</time>
      </trkpt>
      <trkpt lat="44.87197" lon="5.67685">
        <ele>527.486</ele>
        <time>2019-10-08T12:08:03.001Z</time>
      </trkpt>
      <trkpt lat="44.87195" lon="5.67687">
        <ele>523.733</ele>
        <time>2019-10-08T12:09:48.001Z</time>
      </trkpt>
      <trkpt lat="44.87169" lon="5.67673">
        <ele>526.913</ele>
        <time>2019-10-08T12:12:27.001Z</time>
      </trkpt>
      <trkpt lat="44.87098" lon="5.67657">
        <ele>535.87</ele>
        <time>2019-10-08T12:15:00Z</time>
      </trkpt>
      <trkpt lat="44.8706" lon="5.67603">
        <ele>549.297</ele>
        <time>2019-10-08T12:23:51.001Z</time>
      </trkpt>
      <trkpt lat="44.87034" lon="5.67529">
        <ele>561.101</ele>
        <time>2019-10-08T12:27:18.001Z</time>
      </trkpt>
      <trkpt lat="44.87023" lon="5.67489">
        <ele>570.36</ele>
        <time>2019-10-08T12:28:27.001Z</time>
      </trkpt>
      <trkpt lat="44.87017" lon="5.67415">
        <ele>579.995</ele>
        <time>2019-10-08T12:30:33.001Z</time>
      </trkpt>
      <trkpt lat="44.87003" lon="5.67442">
        <ele>585.332</ele>
        <time>2019-10-08T12:31:18.001Z</time>
      </trkpt>
      <trkpt lat="44.86977" lon="5.67493">
        <ele>590.179</ele>
        <time>2019-10-08T12:32:15.001Z</time>
      </trkpt>
      <trkpt lat="44.86952" lon="5.67608">
        <ele>600.484</ele>
        <time>2019-10-08T12:35:03.001Z</time>
      </trkpt>
      <trkpt lat="44.86862" lon="5.67797">
        <ele>611.302</ele>
        <time>2019-10-08T12:38:45.001Z</time>
      </trkpt>
      <trkpt lat="44.86755" lon="5.67997">
        <ele>623.665</ele>
        <time>2019-10-08T12:41:24.001Z</time>
      </trkpt>
      <trkpt lat="44.86721" lon="5.68092">
        <ele>625.958</ele>
        <time>2019-10-08T12:44:39.001Z</time>
      </trkpt>
      <trkpt lat="44.86693" lon="5.68146">
        <ele>636.44</ele>
        <time>2019-10-08T12:45:24.001Z</time>
      </trkpt>
      <trkpt lat="44.86686" lon="5.68184">
        <ele>637.989</ele>
        <time>2019-10-08T12:46:00Z</time>
      </trkpt>
      <trkpt lat="44.86669" lon="5.68233">
        <ele>644.071</ele>
        <time>2019-10-08T12:47:00Z</time>
      </trkpt>
      <trkpt lat="44.86652" lon="5.68263">
        <ele>645.787</ele>
        <time>2019-10-08T12:48:00Z</time>
      </trkpt>
      <trkpt lat="44.86598" lon="5.68312">
        <ele>655.121</ele>
        <time>2019-10-08T12:49:24.001Z</time>
      </trkpt>
      <trkpt lat="44.86564" lon="5.68346">
        <ele>655.174</ele>
        <time>2019-10-08T12:50:03.001Z</time>
      </trkpt>
      <trkpt lat="44.86531" lon="5.68392">
        <ele>659.887</ele>
        <time>2019-10-08T12:51:00Z</time>
      </trkpt>
      <trkpt lat="44.86494" lon="5.68467">
        <ele>653.208</ele>
        <time>2019-10-08T12:51:30.001Z</time>
      </trkpt>
      <trkpt lat="44.86464" lon="5.68518">
        <ele>653.159</ele>
        <time>2019-10-08T12:52:36.001Z</time>
      </trkpt>
      <trkpt lat="44.86457" lon="5.68562">
        <ele>651.546</ele>
        <time>2019-10-08T12:53:30.001Z</time>
      </trkpt>
      <trkpt lat="44.86454" lon="5.6863">
        <ele>655.033</ele>
        <time>2019-10-08T12:56:27.001Z</time>
      </trkpt>
      <trkpt lat="44.86438" lon="5.68682">
        <ele>659.468</ele>
        <time>2019-10-08T12:57:03.001Z</time>
      </trkpt>
      <trkpt lat="44.8642" lon="5.68718">
        <ele>663.08</ele>
        <time>2019-10-08T12:58:12.001Z</time>
      </trkpt>
      <trkpt lat="44.864" lon="5.68747">
        <ele>665.189</ele>
        <time>2019-10-08T12:59:03.001Z</time>
      </trkpt>
      <trkpt lat="44.86368" lon="5.68794">
        <ele>671.282</ele>
        <time>2019-10-08T13:00:48.001Z</time>
      </trkpt>
      <trkpt lat="44.86338" lon="5.68834">
        <ele>675.161</ele>
        <time>2019-10-08T13:01:42.001Z</time>
      </trkpt>
      <trkpt lat="44.86301" lon="5.68859">
        <ele>680.359</ele>
        <time>2019-10-08T13:03:18.001Z</time>
      </trkpt>
      <trkpt lat="44.8626" lon="5.68932">
        <ele>685.877</ele>
        <time>2019-10-08T13:10:00Z</time>
      </trkpt>
      <trkpt lat="44.86294" lon="5.68927">
        <ele>695.495</ele>
        <time>2019-10-08T13:10:42.001Z</time>
      </trkpt>
      <trkpt lat="44.8636" lon="5.68896">
        <ele>690.644</ele>
        <time>2019-10-08T13:11:30.001Z</time>
      </trkpt>
      <trkpt lat="44.86394" lon="5.68909">
        <ele>684.375</ele>
        <time>2019-10-08T13:22:45.001Z</time>
      </trkpt>
      <trkpt lat="44.86415" lon="5.68944">
        <ele>674.472</ele>
        <time>2019-10-08T13:24:12.001Z</time>
      </trkpt>
      <trkpt lat="44.86454" lon="5.68996">
        <ele>663.513</ele>
        <time>2019-10-08T13:25:30.001Z</time>
      </trkpt>
      <trkpt lat="44.86514" lon="5.69039">
        <ele>651.002</ele>
        <time>2019-10-08T13:26:03.001Z</time>
      </trkpt>
      <trkpt lat="44.86529" lon="5.69054">
        <ele>650.814</ele>
        <time>2019-10-08T13:27:21.001Z</time>
      </trkpt>
      <trkpt lat="44.86506" lon="5.69126">
        <ele>652.495</ele>
        <time>2019-10-08T13:28:27.001Z</time>
      </trkpt>
      <trkpt lat="44.86446" lon="5.69183">
        <ele>651.058</ele>
        <time>2019-10-08T13:28:57.001Z</time>
      </trkpt>
      <trkpt lat="44.86398" lon="5.69228">
        <ele>658.398</ele>
        <time>2019-10-08T13:29:33.001Z</time>
      </trkpt>
      <trkpt lat="44.86357" lon="5.69287">
        <ele>666.173</ele>
        <time>2019-10-08T13:30:09.001Z</time>
      </trkpt>
      <trkpt lat="44.86349" lon="5.69383">
        <ele>664.2</ele>
        <time>2019-10-08T13:30:42.001Z</time>
      </trkpt>
      <trkpt lat="44.86416" lon="5.69408">
        <ele>650.792</ele>
        <time>2019-10-08T13:31:12.001Z</time>
      </trkpt>
      <trkpt lat="44.86487" lon="5.69465">
        <ele>637.158</ele>
        <time>2019-10-08T13:31:42.001Z</time>
      </trkpt>
      <trkpt lat="44.86551" lon="5.69522">
        <ele>627.546</ele>
        <time>2019-10-08T13:32:12.001Z</time>
      </trkpt>
      <trkpt lat="44.8662" lon="5.69477">
        <ele>622.867</ele>
        <time>2019-10-08T13:32:42.001Z</time>
      </trkpt>
      <trkpt lat="44.86615" lon="5.69553">
        <ele>617.63</ele>
        <time>2019-10-08T13:33:21.001Z</time>
      </trkpt>
      <trkpt lat="44.86626" lon="5.69622">
        <ele>613.909</ele>
        <time>2019-10-08T13:33:54.001Z</time>
      </trkpt>
      <trkpt lat="44.86621" lon="5.69651">
        <ele>608.329</ele>
        <time>2019-10-08T13:35:15.001Z</time>
      </trkpt>
      <trkpt lat="44.86582" lon="5.69681">
        <ele>602.329</ele>
        <time>2019-10-08T13:36:21.001Z</time>
      </trkpt>
      <trkpt lat="44.86546" lon="5.69706">
        <ele>604.937</ele>
        <time>2019-10-08T13:37:48.001Z</time>
      </trkpt>
      <trkpt lat="44.86536" lon="5.69774">
        <ele>602.909</ele>
        <time>2019-10-08T13:39:09.001Z</time>
      </trkpt>
      <trkpt lat="44.86541" lon="5.69814">
        <ele>600.775</ele>
        <time>2019-10-08T13:39:45.001Z</time>
      </trkpt>
      <trkpt lat="44.86566" lon="5.69846">
        <ele>598.958</ele>
        <time>2019-10-08T13:41:09.001Z</time>
      </trkpt>
      <trkpt lat="44.86598" lon="5.69884">
        <ele>598.718</ele>
        <time>2019-10-08T13:41:54.001Z</time>
      </trkpt>
      <trkpt lat="44.8662" lon="5.69913">
        <ele>592.964</ele>
        <time>2019-10-08T13:42:24.001Z</time>
      </trkpt>
      <trkpt lat="44.86643" lon="5.69954">
        <ele>593.962</ele>
        <time>2019-10-08T13:42:57.001Z</time>
      </trkpt>
      <trkpt lat="44.86654" lon="5.70009">
        <ele>595.249</ele>
        <time>2019-10-08T13:44:24.001Z</time>
      </trkpt>
      <trkpt lat="44.86689" lon="5.70016">
        <ele>592.151</ele>
        <time>2019-10-08T13:45:51.001Z</time>
      </trkpt>
      <trkpt lat="44.8671" lon="5.70013">
        <ele>587.194</ele>
        <time>2019-10-08T13:52:03.001Z</time>
      </trkpt>
      <trkpt lat="44.86725" lon="5.70064">
        <ele>574.615</ele>
        <time>2019-10-08T13:54:24.001Z</time>
      </trkpt>
      <trkpt lat="44.86731" lon="5.70106">
        <ele>568.888</ele>
        <time>2019-10-08T13:55:00Z</time>
      </trkpt>
      <trkpt lat="44.86733" lon="5.70153">
        <ele>563.595</ele>
        <time>2019-10-08T13:55:39.001Z</time>
      </trkpt>
      <trkpt lat="44.86743" lon="5.70199">
        <ele>562.532</ele>
        <time>2019-10-08T13:56:30.001Z</time>
      </trkpt>
      <trkpt lat="44.86758" lon="5.70239">
        <ele>560.676</ele>
        <time>2019-10-08T13:57:06.001Z</time>
      </trkpt>
      <trkpt lat="44.86781" lon="5.70293">
        <ele>548.013</ele>
        <time>2019-10-08T13:58:12.001Z</time>
      </trkpt>
      <trkpt lat="44.86795" lon="5.70322">
        <ele>546.89</ele>
        <time>2019-10-08T13:59:03.001Z</time>
      </trkpt>
      <trkpt lat="44.86813" lon="5.70344">
        <ele>542.464</ele>
        <time>2019-10-08T13:59:39.001Z</time>
      </trkpt>
      <trkpt lat="44.86836" lon="5.70392">
        <ele>526.077</ele>
        <time>2019-10-08T14:00:30.001Z</time>
      </trkpt>
      <trkpt lat="44.86844" lon="5.70461">
        <ele>524.597</ele>
        <time>2019-10-08T14:01:18.001Z</time>
      </trkpt>
      <trkpt lat="44.86861" lon="5.70518">
        <ele>518.643</ele>
        <time>2019-10-08T14:02:06.001Z</time>
      </trkpt>
      <trkpt lat="44.8686" lon="5.70553">
        <ele>514.772</ele>
        <time>2019-10-08T14:03:39.001Z</time>
      </trkpt>
      <trkpt lat="44.86836" lon="5.70591">
        <ele>518.685</ele>
        <time>2019-10-08T14:06:51.001Z</time>
      </trkpt>
      <trkpt lat="44.86827" lon="5.70623">
        <ele>518.929</ele>
        <time>2019-10-08T14:08:12.001Z</time>
      </trkpt>
      <trkpt lat="44.86807" lon="5.70671">
        <ele>530.283</ele>
        <time>2019-10-08T14:10:24.001Z</time>
      </trkpt>
      <trkpt lat="44.86805" lon="5.70699">
        <ele>537.59</ele>
        <time>2019-10-08T14:11:33.001Z</time>
      </trkpt>
      <trkpt lat="44.86803" lon="5.70729">
        <ele>542.663</ele>
        <time>2019-10-08T14:12:39.001Z</time>
      </trkpt>
      <trkpt lat="44.868" lon="5.70755">
        <ele>543.477</ele>
        <time>2019-10-08T14:13:45.001Z</time>
      </trkpt>
      <trkpt lat="44.86795" lon="5.70787">
        <ele>541.474</ele>
        <time>2019-10-08T14:16:24.001Z</time>
      </trkpt>
      <trkpt lat="44.86807" lon="5.70811">
        <ele>537.676</ele>
        <time>2019-10-08T14:17:03.001Z</time>
      </trkpt>
      <trkpt lat="44.86829" lon="5.70826">
        <ele>524.454</ele>
        <time>2019-10-08T14:17:33.001Z</time>
      </trkpt>
      <trkpt lat="44.86865" lon="5.70854">
        <ele>518.967</ele>
        <time>2019-10-08T14:18:21.001Z</time>
      </trkpt>
      <trkpt lat="44.86872" lon="5.70862">
        <ele>517.685</ele>
        <time>2019-10-08T14:20:18.001Z</time>
      </trkpt>
      <trkpt lat="44.86918" lon="5.70902">
        <ele>525.306</ele>
        <time>2019-10-08T14:21:15.001Z</time>
      </trkpt>
      <trkpt lat="44.86942" lon="5.70919">
        <ele>524.942</ele>
        <time>2019-10-08T14:21:51.001Z</time>
      </trkpt>
      <trkpt lat="44.86968" lon="5.70935">
        <ele>529.655</ele>
        <time>2019-10-08T14:22:39.001Z</time>
      </trkpt>
      <trkpt lat="44.87003" lon="5.70953">
        <ele>538.039</ele>
        <time>2019-10-08T14:27:06.001Z</time>
      </trkpt>
      <trkpt lat="44.86984" lon="5.70959">
        <ele>552.454</ele>
        <time>2019-10-08T14:28:57.001Z</time>
      </trkpt>
      <trkpt lat="44.86958" lon="5.70973">
        <ele>553.895</ele>
        <time>2019-10-08T14:30:06.001Z</time>
      </trkpt>
      <trkpt lat="44.86959" lon="5.70987">
        <ele>562.27</ele>
        <time>2019-10-08T14:33:24.001Z</time>
      </trkpt>
      <trkpt lat="44.86958" lon="5.71002">
        <ele>566.367</ele>
        <time>2019-10-08T14:35:48.001Z</time>
      </trkpt>
      <trkpt lat="44.86957" lon="5.71011">
        <ele>571.109</ele>
        <time>2019-10-08T14:37:27.001Z</time>
      </trkpt>
      <trkpt lat="44.86962" lon="5.71038">
        <ele>575.914</ele>
        <time>2019-10-08T14:38:15.001Z</time>
      </trkpt>
      <trkpt lat="44.86964" lon="5.7106">
        <ele>581.27</ele>
        <time>2019-10-08T14:39:12.001Z</time>
      </trkpt>
      <trkpt lat="44.86973" lon="5.71046">
        <ele>586.475</ele>
        <time>2019-10-08T14:39:48.001Z</time>
      </trkpt>
      <trkpt lat="44.87006" lon="5.71059">
        <ele>590.49</ele>
        <time>2019-10-08T14:40:54.001Z</time>
      </trkpt>
      <trkpt lat="44.87098" lon="5.71122">
        <ele>594.511</ele>
        <time>2019-10-08T14:52:21.001Z</time>
      </trkpt>
      <trkpt lat="44.87137" lon="5.71143">
        <ele>600.961</ele>
        <time>2019-10-08T14:53:24.001Z</time>
      </trkpt>
      <trkpt lat="44.87149" lon="5.71157">
        <ele>603.81</ele>
        <time>2019-10-08T14:54:12.001Z</time>
      </trkpt>
      <trkpt lat="44.87167" lon="5.7118">
        <ele>609.937</ele>
        <time>2019-10-08T14:54:48.001Z</time>
      </trkpt>
      <trkpt lat="44.87224" lon="5.71157">
        <ele>610.829</ele>
        <time>2019-10-08T14:55:51.001Z</time>
      </trkpt>
      <trkpt lat="44.87248" lon="5.71164">
        <ele>617.464</ele>
        <time>2019-10-08T14:56:33.001Z</time>
      </trkpt>
      <trkpt lat="44.87266" lon="5.71191">
        <ele>622.072</ele>
        <time>2019-10-08T14:57:15.001Z</time>
      </trkpt>
      <trkpt lat="44.87283" lon="5.71224">
        <ele>628.441</ele>
        <time>2019-10-08T14:58:24.001Z</time>
      </trkpt>
      <trkpt lat="44.87298" lon="5.71258">
        <ele>635.129</ele>
        <time>2019-10-08T14:59:12.001Z</time>
      </trkpt>
      <trkpt lat="44.87312" lon="5.71295">
        <ele>638.904</ele>
        <time>2019-10-08T15:00:45.001Z</time>
      </trkpt>
      <trkpt lat="44.87321" lon="5.71318">
        <ele>644.375</ele>
        <time>2019-10-08T15:01:24.001Z</time>
      </trkpt>
      <trkpt lat="44.87326" lon="5.7137">
        <ele>654.268</ele>
        <time>2019-10-08T15:02:45.001Z</time>
      </trkpt>
      <trkpt lat="44.87317" lon="5.71394">
        <ele>654.517</ele>
        <time>2019-10-08T15:05:12.001Z</time>
      </trkpt>
      <trkpt lat="44.87314" lon="5.71463">
        <ele>656.057</ele>
        <time>2019-10-08T15:07:48.001Z</time>
      </trkpt>
      <trkpt lat="44.87334" lon="5.7157">
        <ele>656.981</ele>
        <time>2019-10-08T15:08:18.001Z</time>
      </trkpt>
      <trkpt lat="44.87291" lon="5.71734">
        <ele>657.32</ele>
        <time>2019-10-08T15:08:48.001Z</time>
      </trkpt>
      <trkpt lat="44.8727" lon="5.71871">
        <ele>660.971</ele>
        <time>2019-10-08T15:09:18.001Z</time>
      </trkpt>
      <trkpt lat="44.8732" lon="5.72009">
        <ele>656.702</ele>
        <time>2019-10-08T15:09:48.001Z</time>
      </trkpt>
      <trkpt lat="44.87295" lon="5.72148">
        <ele>660.841</ele>
        <time>2019-10-08T15:10:18.001Z</time>
      </trkpt>
      <trkpt lat="44.87207" lon="5.723">
        <ele>662.593</ele>
        <time>2019-10-08T15:10:48.001Z</time>
      </trkpt>
      <trkpt lat="44.87177" lon="5.72458">
        <ele>658.075</ele>
        <time>2019-10-08T15:11:18.001Z</time>
      </trkpt>
      <trkpt lat="44.87188" lon="5.72616">
        <ele>644.19</ele>
        <time>2019-10-08T15:11:48.001Z</time>
      </trkpt>
      <trkpt lat="44.87229" lon="5.72703">
        <ele>638.505</ele>
        <time>2019-10-08T15:12:18.002Z</time>
      </trkpt>
      <trkpt lat="44.8732" lon="5.72753">
        <ele>643.813</ele>
        <time>2019-10-08T15:12:48.001Z</time>
      </trkpt>
      <trkpt lat="44.87349" lon="5.72848">
        <ele>642.767</ele>
        <time>2019-10-08T15:13:18.001Z</time>
      </trkpt>
      <trkpt lat="44.87325" lon="5.72939">
        <ele>645.178</ele>
        <time>2019-10-08T15:13:51.001Z</time>
      </trkpt>
      <trkpt lat="44.87372" lon="5.72993">
        <ele>639.347</ele>
        <time>2019-10-08T15:14:27.001Z</time>
      </trkpt>
      <trkpt lat="44.87407" lon="5.73031">
        <ele>639.477</ele>
        <time>2019-10-08T15:15:24.001Z</time>
      </trkpt>
      <trkpt lat="44.87467" lon="5.73106">
        <ele>638.561</ele>
        <time>2019-10-08T15:15:54.001Z</time>
      </trkpt>
      <trkpt lat="44.8745" lon="5.73145">
        <ele>649.158</ele>
        <time>2019-10-08T15:17:24.001Z</time>
      </trkpt>
      <trkpt lat="44.87407" lon="5.73165">
        <ele>650.349</ele>
        <time>2019-10-08T15:18:21.001Z</time>
      </trkpt>
      <trkpt lat="44.87385" lon="5.73171">
        <ele>652.937</ele>
        <time>2019-10-08T15:19:09.001Z</time>
      </trkpt>
      <trkpt lat="44.87325" lon="5.73181">
        <ele>649.529</ele>
        <time>2019-10-08T15:19:42.001Z</time>
      </trkpt>
      <trkpt lat="44.87259" lon="5.73228">
        <ele>647.501</ele>
        <time>2019-10-08T15:20:15.001Z</time>
      </trkpt>
      <trkpt lat="44.87212" lon="5.73253">
        <ele>645.575</ele>
        <time>2019-10-08T15:21:06.001Z</time>
      </trkpt>
      <trkpt lat="44.87186" lon="5.73286">
        <ele>652.573</ele>
        <time>2019-10-08T15:21:45.001Z</time>
      </trkpt>
      <trkpt lat="44.87163" lon="5.73316">
        <ele>657.939</ele>
        <time>2019-10-08T15:22:30.001Z</time>
      </trkpt>
      <trkpt lat="44.8716" lon="5.73395">
        <ele>659.386</ele>
        <time>2019-10-08T15:23:42.001Z</time>
      </trkpt>
      <trkpt lat="44.87173" lon="5.73481">
        <ele>654.602</ele>
        <time>2019-10-08T15:24:33.001Z</time>
      </trkpt>
      <trkpt lat="44.87183" lon="5.73492">
        <ele>651.55</ele>
        <time>2019-10-08T15:26:03.001Z</time>
      </trkpt>
      <trkpt lat="44.87164" lon="5.73406">
        <ele>652.924</ele>
        <time>2019-10-08T15:26:36.001Z</time>
      </trkpt>
      <trkpt lat="44.87227" lon="5.73381">
        <ele>655.254</ele>
        <time>2019-10-08T15:27:06.001Z</time>
      </trkpt>
      <trkpt lat="44.8728" lon="5.73407">
        <ele>667.598</ele>
        <time>2019-10-08T15:27:39.001Z</time>
      </trkpt>
      <trkpt lat="44.87344" lon="5.73437">
        <ele>677.35</ele>
        <time>2019-10-08T15:28:24.001Z</time>
      </trkpt>
      <trkpt lat="44.87391" lon="5.73496">
        <ele>686.829</ele>
        <time>2019-10-08T15:29:12.001Z</time>
      </trkpt>
      <trkpt lat="44.8737" lon="5.73539">
        <ele>687.35</ele>
        <time>2019-10-08T15:30:24.001Z</time>
      </trkpt>
      <trkpt lat="44.87337" lon="5.73594">
        <ele>691.389</ele>
        <time>2019-10-08T15:31:21.001Z</time>
      </trkpt>
      <trkpt lat="44.87313" lon="5.73639">
        <ele>692.559</ele>
        <time>2019-10-08T15:33:09.001Z</time>
      </trkpt>
      <trkpt lat="44.8729" lon="5.7372">
        <ele>695.339</ele>
        <time>2019-10-08T15:33:42.001Z</time>
      </trkpt>
      <trkpt lat="44.87283" lon="5.73802">
        <ele>697.54</ele>
        <time>2019-10-08T15:34:12.001Z</time>
      </trkpt>
      <trkpt lat="44.87272" lon="5.73884">
        <ele>700.533</ele>
        <time>2019-10-08T15:34:42.001Z</time>
      </trkpt>
      <trkpt lat="44.87265" lon="5.73965">
        <ele>702.17</ele>
        <time>2019-10-08T15:35:12.001Z</time>
      </trkpt>
      <trkpt lat="44.87269" lon="5.74043">
        <ele>702.692</ele>
        <time>2019-10-08T15:35:42.001Z</time>
      </trkpt>
      <trkpt lat="44.87273" lon="5.74126">
        <ele>707.819</ele>
        <time>2019-10-08T15:36:12.001Z</time>
      </trkpt>
      <trkpt lat="44.87284" lon="5.74201">
        <ele>708.032</ele>
        <time>2019-10-08T15:36:42.001Z</time>
      </trkpt>
      <trkpt lat="44.87327" lon="5.74255">
        <ele>712.263</ele>
        <time>2019-10-08T15:37:12.001Z</time>
      </trkpt>
      <trkpt lat="44.87377" lon="5.7429">
        <ele>720.865</ele>
        <time>2019-10-08T15:37:42.001Z</time>
      </trkpt>
      <trkpt lat="44.87415" lon="5.74334">
        <ele>729.648</ele>
        <time>2019-10-08T15:38:15.001Z</time>
      </trkpt>
      <trkpt lat="44.87394" lon="5.74407">
        <ele>729.722</ele>
        <time>2019-10-08T15:38:45.001Z</time>
      </trkpt>
      <trkpt lat="44.87363" lon="5.74479">
        <ele>728.232</ele>
        <time>2019-10-08T15:39:15.001Z</time>
      </trkpt>
      <trkpt lat="44.87366" lon="5.74555">
        <ele>730.775</ele>
        <time>2019-10-08T15:39:45.001Z</time>
      </trkpt>
      <trkpt lat="44.87384" lon="5.74628">
        <ele>731.401</ele>
        <time>2019-10-08T15:40:15.002Z</time>
      </trkpt>
      <trkpt lat="44.87405" lon="5.74699">
        <ele>742.462</ele>
        <time>2019-10-08T15:40:45.001Z</time>
      </trkpt>
      <trkpt lat="44.87398" lon="5.74779">
        <ele>749.686</ele>
        <time>2019-10-08T15:41:15.001Z</time>
      </trkpt>
      <trkpt lat="44.87391" lon="5.74852">
        <ele>746.367</ele>
        <time>2019-10-08T15:41:45.001Z</time>
      </trkpt>
      <trkpt lat="44.87416" lon="5.74915">
        <ele>751.389</ele>
        <time>2019-10-08T15:42:15.001Z</time>
      </trkpt>
      <trkpt lat="44.87464" lon="5.74974">
        <ele>758.079</ele>
        <time>2019-10-08T15:42:48.001Z</time>
      </trkpt>
      <trkpt lat="44.87517" lon="5.75007">
        <ele>765.633</ele>
        <time>2019-10-08T15:43:18.001Z</time>
      </trkpt>
      <trkpt lat="44.87566" lon="5.75044">
        <ele>767.4</ele>
        <time>2019-10-08T15:43:48.001Z</time>
      </trkpt>
      <trkpt lat="44.87611" lon="5.75095">
        <ele>768.581</ele>
        <time>2019-10-08T15:44:18.001Z</time>
      </trkpt>
      <trkpt lat="44.87652" lon="5.7515">
        <ele>772.105</ele>
        <time>2019-10-08T15:44:48.001Z</time>
      </trkpt>
      <trkpt lat="44.87698" lon="5.75201">
        <ele>770.79</ele>
        <time>2019-10-08T15:45:18.001Z</time>
      </trkpt>
      <trkpt lat="44.87748" lon="5.75245">
        <ele>772.967</ele>
        <time>2019-10-08T15:45:51.001Z</time>
      </trkpt>
      <trkpt lat="44.87795" lon="5.75285">
        <ele>773.698</ele>
        <time>2019-10-08T15:46:21.001Z</time>
      </trkpt>
      <trkpt lat="44.87828" lon="5.75316">
        <ele>771.574</ele>
        <time>2019-10-08T15:46:57.001Z</time>
      </trkpt>
      <trkpt lat="44.87846" lon="5.75323">
        <ele>779.105</ele>
        <time>2019-10-08T15:50:18.001Z</time>
      </trkpt>
      <trkpt lat="44.87858" lon="5.75373">
        <ele>789.919</ele>
        <time>2019-10-08T15:50:48.001Z</time>
      </trkpt>
      <trkpt lat="44.87804" lon="5.7539">
        <ele>776.669</ele>
        <time>2019-10-08T15:51:18.001Z</time>
      </trkpt>
      <trkpt lat="44.87748" lon="5.75407">
        <ele>767.177</ele>
        <time>2019-10-08T15:51:48.001Z</time>
      </trkpt>
      <trkpt lat="44.87694" lon="5.75434">
        <ele>766.692</ele>
        <time>2019-10-08T15:52:18.001Z</time>
      </trkpt>
      <trkpt lat="44.8764" lon="5.75441">
        <ele>773.638</ele>
        <time>2019-10-08T15:52:48.001Z</time>
      </trkpt>
      <trkpt lat="44.87583" lon="5.75457">
        <ele>778.852</ele>
        <time>2019-10-08T15:53:18.001Z</time>
      </trkpt>
      <trkpt lat="44.87541" lon="5.75503">
        <ele>784.018</ele>
        <time>2019-10-08T15:53:48.001Z</time>
      </trkpt>
      <trkpt lat="44.87551" lon="5.75589">
        <ele>791.886</ele>
        <time>2019-10-08T15:54:18.001Z</time>
      </trkpt>
      <trkpt lat="44.87574" lon="5.75668">
        <ele>801.929</ele>
        <time>2019-10-08T15:54:48.001Z</time>
      </trkpt>
      <trkpt lat="44.87598" lon="5.75746">
        <ele>808.567</ele>
        <time>2019-10-08T15:55:18.001Z</time>
      </trkpt>
      <trkpt lat="44.87622" lon="5.75832">
        <ele>808.114</ele>
        <time>2019-10-08T15:55:48.001Z</time>
      </trkpt>
      <trkpt lat="44.87673" lon="5.75884">
        <ele>810.037</ele>
        <time>2019-10-08T15:56:18.001Z</time>
      </trkpt>
      <trkpt lat="44.87718" lon="5.75938">
        <ele>816.898</ele>
        <time>2019-10-08T15:56:48.001Z</time>
      </trkpt>
      <trkpt lat="44.87749" lon="5.76003">
        <ele>817.921</ele>
        <time>2019-10-08T15:57:18.001Z</time>
      </trkpt>
      <trkpt lat="44.87757" lon="5.76087">
        <ele>824.397</ele>
        <time>2019-10-08T15:57:48.001Z</time>
      </trkpt>
      <trkpt lat="44.87776" lon="5.7618">
        <ele>831.306</ele>
        <time>2019-10-08T15:58:21.001Z</time>
      </trkpt>
      <trkpt lat="44.87781" lon="5.76264">
        <ele>832.606</ele>
        <time>2019-10-08T15:58:51.001Z</time>
      </trkpt>
      <trkpt lat="44.87812" lon="5.76345">
        <ele>826.231</ele>
        <time>2019-10-08T15:59:21.001Z</time>
      </trkpt>
      <trkpt lat="44.87855" lon="5.76409">
        <ele>827.464</ele>
        <time>2019-10-08T15:59:51.001Z</time>
      </trkpt>
      <trkpt lat="44.87903" lon="5.76464">
        <ele>832.398</ele>
        <time>2019-10-08T16:00:21.001Z</time>
      </trkpt>
      <trkpt lat="44.8795" lon="5.76516">
        <ele>834.191</ele>
        <time>2019-10-08T16:00:51.001Z</time>
      </trkpt>
      <trkpt lat="44.88001" lon="5.76567">
        <ele>835.66</ele>
        <time>2019-10-08T16:01:21.001Z</time>
      </trkpt>
      <trkpt lat="44.88063" lon="5.76604">
        <ele>839.333</ele>
        <time>2019-10-08T16:01:51.001Z</time>
      </trkpt>
      <trkpt lat="44.88129" lon="5.76642">
        <ele>841.874</ele>
        <time>2019-10-08T16:02:21.001Z</time>
      </trkpt>
      <trkpt lat="44.88196" lon="5.76639">
        <ele>843.49</ele>
        <time>2019-10-08T16:02:51.001Z</time>
      </trkpt>
      <trkpt lat="44.88246" lon="5.76569">
        <ele>846.426</ele>
        <time>2019-10-08T16:03:21.001Z</time>
      </trkpt>
      <trkpt lat="44.88329" lon="5.76499">
        <ele>851.598</ele>
        <time>2019-10-08T16:03:51.001Z</time>
      </trkpt>
      <trkpt lat="44.88393" lon="5.76421">
        <ele>850.761</ele>
        <time>2019-10-08T16:04:21.001Z</time>
      </trkpt>
      <trkpt lat="44.88476" lon="5.7638">
        <ele>845.068</ele>
        <time>2019-10-08T16:04:51.001Z</time>
      </trkpt>
      <trkpt lat="44.88522" lon="5.76261">
        <ele>847.818</ele>
        <time>2019-10-08T16:05:21.001Z</time>
      </trkpt>
      <trkpt lat="44.8861" lon="5.76158">
        <ele>845.317</ele>
        <time>2019-10-08T16:05:51.001Z</time>
      </trkpt>
      <trkpt lat="44.88715" lon="5.7619">
        <ele>843.776</ele>
        <time>2019-10-08T16:06:21.001Z</time>
      </trkpt>
      <trkpt lat="44.88863" lon="5.76183">
        <ele>843.637</ele>
        <time>2019-10-08T16:06:51.001Z</time>
      </trkpt>
      <trkpt lat="44.88892" lon="5.76332">
        <ele>840.453</ele>
        <time>2019-10-08T16:07:21.001Z</time>
      </trkpt>
      <trkpt lat="44.88991" lon="5.76328">
        <ele>844.644</ele>
        <time>2019-10-08T16:07:51.001Z</time>
      </trkpt>
      <trkpt lat="44.89083" lon="5.7622">
        <ele>841.725</ele>
        <time>2019-10-08T16:08:21.001Z</time>
      </trkpt>
      <trkpt lat="44.89179" lon="5.76165">
        <ele>845.268</ele>
        <time>2019-10-08T16:08:51.001Z</time>
      </trkpt>
      <trkpt lat="44.89279" lon="5.7622">
        <ele>848.371</ele>
        <time>2019-10-08T16:09:21.001Z</time>
      </trkpt>
      <trkpt lat="44.89253" lon="5.76368">
        <ele>847.36</ele>
        <time>2019-10-08T16:09:54.001Z</time>
      </trkpt>
      <trkpt lat="44.8929" lon="5.76421">
        <ele>854.983</ele>
        <time>2019-10-08T16:10:24.001Z</time>
      </trkpt>
      <trkpt lat="44.89314" lon="5.76506">
        <ele>856.427</ele>
        <time>2019-10-08T16:10:54.001Z</time>
      </trkpt>
      <trkpt lat="44.89314" lon="5.76678">
        <ele>860.858</ele>
        <time>2019-10-08T16:11:24.001Z</time>
      </trkpt>
      <trkpt lat="44.894" lon="5.76812">
        <ele>855.07</ele>
        <time>2019-10-08T16:11:54.001Z</time>
      </trkpt>
      <trkpt lat="44.89497" lon="5.76873">
        <ele>859.003</ele>
        <time>2019-10-08T16:12:24.001Z</time>
      </trkpt>
      <trkpt lat="44.89587" lon="5.7698">
        <ele>860.571</ele>
        <time>2019-10-08T16:12:54.001Z</time>
      </trkpt>
      <trkpt lat="44.8974" lon="5.77145">
        <ele>854.71</ele>
        <time>2019-10-08T16:13:24.001Z</time>
      </trkpt>
      <trkpt lat="44.89886" lon="5.77172">
        <ele>851.707</ele>
        <time>2019-10-08T16:13:54.001Z</time>
      </trkpt>
      <trkpt lat="44.89981" lon="5.77232">
        <ele>856.258</ele>
        <time>2019-10-08T16:14:24.001Z</time>
      </trkpt>
      <trkpt lat="44.90008" lon="5.77268">
        <ele>855.884</ele>
        <time>2019-10-08T16:19:54.001Z</time>
      </trkpt>
      <trkpt lat="44.90066" lon="5.77418">
        <ele>857.19</ele>
        <time>2019-10-08T16:20:24.001Z</time>
      </trkpt>
      <trkpt lat="44.90108" lon="5.77611">
        <ele>858.387</ele>
        <time>2019-10-08T16:20:54.001Z</time>
      </trkpt>
      <trkpt lat="44.90083" lon="5.77757">
        <ele>859.354</ele>
        <time>2019-10-08T16:21:24.001Z</time>
      </trkpt>
      <trkpt lat="44.90029" lon="5.77852">
        <ele>859.739</ele>
        <time>2019-10-08T16:21:54.001Z</time>
      </trkpt>
      <trkpt lat="44.89988" lon="5.77952">
        <ele>858.86</ele>
        <time>2019-10-08T16:22:24.001Z</time>
      </trkpt>
      <trkpt lat="44.90062" lon="5.78105">
        <ele>861.781</ele>
        <time>2019-10-08T16:22:54.001Z</time>
      </trkpt>
      <trkpt lat="44.9011" lon="5.78229">
        <ele>865.768</ele>
        <time>2019-10-08T16:23:24.001Z</time>
      </trkpt>
      <trkpt lat="44.90136" lon="5.78342">
        <ele>870.293</ele>
        <time>2019-10-08T16:23:54.001Z</time>
      </trkpt>
      <trkpt lat="44.90215" lon="5.78469">
        <ele>879.069</ele>
        <time>2019-10-08T16:24:24.001Z</time>
      </trkpt>
      <trkpt lat="44.90298" lon="5.78614">
        <ele>869.053</ele>
        <time>2019-10-08T16:24:54.001Z</time>
      </trkpt>
      <trkpt lat="44.90418" lon="5.78677">
        <ele>866.046</ele>
        <time>2019-10-08T16:25:24.001Z</time>
      </trkpt>
      <trkpt lat="44.90528" lon="5.78738">
        <ele>869.072</ele>
        <time>2019-10-08T16:25:54.001Z</time>
      </trkpt>
      <trkpt lat="44.90635" lon="5.78779">
        <ele>885.357</ele>
        <time>2019-10-08T16:26:24.001Z</time>
      </trkpt>
      <trkpt lat="44.90711" lon="5.78898">
        <ele>870.756</ele>
        <time>2019-10-08T16:26:57.001Z</time>
      </trkpt>
      <trkpt lat="44.90703" lon="5.78916">
        <ele>875.121</ele>
        <time>2019-10-08T16:30:39.001Z</time>
      </trkpt>
      <trkpt lat="44.90694" lon="5.78922">
        <ele>868.564</ele>
        <time>2019-10-08T16:36:03.001Z</time>
      </trkpt>
      <trkpt lat="44.90709" lon="5.7891">
        <ele>861.45</ele>
        <time>2019-10-08T16:38:00Z</time>
      </trkpt>
      <trkpt lat="44.90717" lon="5.78894">
        <ele>860.514</ele>
        <time>2019-10-08T16:40:45.001Z</time>
      </trkpt>
      <trkpt lat="44.90721" lon="5.789">
        <ele>871.318</ele>
        <time>2019-10-08T16:43:41.001Z</time>
      </trkpt>
      <trkpt lat="44.9076" lon="5.78986">
        <ele>874.663</ele>
        <time>2019-10-08T16:45:23.001Z</time>
      </trkpt>
      <trkpt lat="44.90847" lon="5.79116">
        <ele>871.501</ele>
        <time>2019-10-08T16:45:53.001Z</time>
      </trkpt>
      <trkpt lat="44.90952" lon="5.79285">
        <ele>870.525</ele>
        <time>2019-10-08T16:46:26.001Z</time>
      </trkpt>
      <trkpt lat="44.90958" lon="5.79295">
        <ele>870.319</ele>
        <time>2019-10-08T16:47:08.001Z</time>
      </trkpt>
      <trkpt lat="44.90951" lon="5.7929">
        <ele>869.585</ele>
        <time>2019-10-08T16:49:08.001Z</time>
      </trkpt>
      <trkpt lat="44.9095" lon="5.79285">
        <ele>872.778</ele>
        <time>2019-10-08T16:54:56.001Z</time>
      </trkpt>
      <trkpt lat="44.90941" lon="5.793">
        <ele>862.478</ele>
        <time>2019-10-08T16:56:20.001Z</time>
      </trkpt>
      <trkpt lat="44.90946" lon="5.79292">
        <ele>865.419</ele>
        <time>2019-10-08T16:57:29.001Z</time>
      </trkpt>
      <trkpt lat="44.90952" lon="5.79302">
        <ele>862.446</ele>
        <time>2019-10-08T16:58:29.001Z</time>
      </trkpt>
      <trkpt lat="44.90953" lon="5.79285">
        <ele>863.377</ele>
        <time>2019-10-08T17:04:59.001Z</time>
      </trkpt>
      <trkpt lat="44.90953" lon="5.79285">
        <ele>862.272</ele>
        <time>2019-10-08T17:05:59.001Z</time>
      </trkpt>
      <trkpt lat="44.9093" lon="5.79246">
        <ele>864.741</ele>
        <time>2019-10-08T17:06:44.001Z</time>
      </trkpt>
      <trkpt lat="44.90847" lon="5.79123">
        <ele>878.345</ele>
        <time>2019-10-08T17:07:14.001Z</time>
      </trkpt>
      <trkpt lat="44.90774" lon="5.79014">
        <ele>884.969</ele>
        <time>2019-10-08T17:07:44.001Z</time>
      </trkpt>
      <trkpt lat="44.90699" lon="5.78892">
        <ele>887.742</ele>
        <time>2019-10-08T17:08:14.001Z</time>
      </trkpt>
      <trkpt lat="44.9065" lon="5.78775">
        <ele>885.062</ele>
        <time>2019-10-08T17:08:44.001Z</time>
      </trkpt>
      <trkpt lat="44.90616" lon="5.78727">
        <ele>885.083</ele>
        <time>2019-10-08T17:09:14.001Z</time>
      </trkpt>
      <trkpt lat="44.90622" lon="5.78657">
        <ele>884.508</ele>
        <time>2019-10-08T17:09:44.001Z</time>
      </trkpt>
      <trkpt lat="44.90592" lon="5.78616">
        <ele>883.662</ele>
        <time>2019-10-08T17:10:20.001Z</time>
      </trkpt>
      <trkpt lat="44.90602" lon="5.7862">
        <ele>886.287</ele>
        <time>2019-10-08T17:11:32.001Z</time>
      </trkpt>
      <trkpt lat="44.90631" lon="5.78625">
        <ele>890.673</ele>
        <time>2019-10-08T17:12:59.001Z</time>
      </trkpt>
      <trkpt lat="44.90608" lon="5.78625">
        <ele>883.546</ele>
        <time>2019-10-08T17:13:50.001Z</time>
      </trkpt>
      <trkpt lat="44.90625" lon="5.78614">
        <ele>883.346</ele>
        <time>2019-10-08T17:15:17.001Z</time>
      </trkpt>
      <trkpt lat="44.90608" lon="5.78613">
        <ele>889.819</ele>
        <time>2019-10-08T17:15:56.001Z</time>
      </trkpt>
      <trkpt lat="44.90647" lon="5.78551">
        <ele>882.891</ele>
        <time>2019-10-08T17:17:23.001Z</time>
      </trkpt>
      <trkpt lat="44.90626" lon="5.78466">
        <ele>885.376</ele>
        <time>2019-10-08T17:17:59.001Z</time>
      </trkpt>
      <trkpt lat="44.90668" lon="5.78405">
        <ele>889.266</ele>
        <time>2019-10-08T17:18:35.001Z</time>
      </trkpt>
      <trkpt lat="44.90749" lon="5.7834">
        <ele>884.169</ele>
        <time>2019-10-08T17:19:05.001Z</time>
      </trkpt>
      <trkpt lat="44.90728" lon="5.78285">
        <ele>872.601</ele>
        <time>2019-10-08T17:19:35.001Z</time>
      </trkpt>
      <trkpt lat="44.90636" lon="5.78266">
        <ele>872.123</ele>
        <time>2019-10-08T17:20:05.001Z</time>
      </trkpt>
    </trkseg>
  </trk>
</gpx>